<?xml version="1.0" encoding="UTF-8" standalone="no" ?>
<gpx xmlns="http://www.topografix.com/GPX/1/1" xmlns:xsi="http://www.w3.org/2001/XMLSchema-instance" xsi:schemaLocation="http://www.topografix.com/GPX/1/1 http://www.topografix.com/GPX/1/1/gpx.xsd" version="1.1" creator="VisuGPX - https://www.visugpx.com">
  <metadata>
    <name>Mont Cindre - Saint-Romain</name>
    <desc><![CDATA[Mon 1er trail ! 1h07mn, dénivelé  de 297m]]></desc>
  </metadata>
  <trk>
    <name><![CDATA[Saint-Romain-au-Mont-d'Or Course à pied]]></name>
    <trkseg>
      <trkpt lat="45.82773" lon="4.82562">
        <ele>424.2</ele>
        <time>2015-06-20T06:59:06.000Z</time>
      </trkpt>
      <trkpt lat="45.82774" lon="4.82561">
        <ele>424.2</ele>
        <time>2015-06-20T06:59:11.000Z</time>
      </trkpt>
      <trkpt lat="45.82776" lon="4.82557">
        <ele>424.7</ele>
        <time>2015-06-20T06:59:15.000Z</time>
      </trkpt>
      <trkpt lat="45.8278" lon="4.82552">
        <ele>425.6</ele>
        <time>2015-06-20T06:59:18.000Z</time>
      </trkpt>
      <trkpt lat="45.82782" lon="4.82557">
        <ele>425.2</ele>
        <time>2015-06-20T06:59:22.000Z</time>
      </trkpt>
      <trkpt lat="45.82782" lon="4.82566">
        <ele>424.2</ele>
        <time>2015-06-20T06:59:26.000Z</time>
      </trkpt>
      <trkpt lat="45.8278" lon="4.82577">
        <ele>422.8</ele>
        <time>2015-06-20T06:59:29.000Z</time>
      </trkpt>
      <trkpt lat="45.82785" lon="4.82604">
        <ele>419</ele>
        <time>2015-06-20T06:59:40.000Z</time>
      </trkpt>
      <trkpt lat="45.8279" lon="4.82624">
        <ele>416.4</ele>
        <time>2015-06-20T06:59:47.000Z</time>
      </trkpt>
      <trkpt lat="45.82795" lon="4.8264">
        <ele>414.7</ele>
        <time>2015-06-20T06:59:53.000Z</time>
      </trkpt>
      <trkpt lat="45.82799" lon="4.82657">
        <ele>412.3</ele>
        <time>2015-06-20T07:00:00.000Z</time>
      </trkpt>
      <trkpt lat="45.82801" lon="4.82672">
        <ele>410</ele>
        <time>2015-06-20T07:00:06.000Z</time>
      </trkpt>
      <trkpt lat="45.828" lon="4.82683">
        <ele>408.4</ele>
        <time>2015-06-20T07:00:10.000Z</time>
      </trkpt>
      <trkpt lat="45.82796" lon="4.82694">
        <ele>406.7</ele>
        <time>2015-06-20T07:00:14.000Z</time>
      </trkpt>
      <trkpt lat="45.82794" lon="4.82707">
        <ele>404.6</ele>
        <time>2015-06-20T07:00:19.000Z</time>
      </trkpt>
      <trkpt lat="45.82789" lon="4.82716">
        <ele>402.9</ele>
        <time>2015-06-20T07:00:25.000Z</time>
      </trkpt>
      <trkpt lat="45.82788" lon="4.82717">
        <ele>402.6</ele>
        <time>2015-06-20T07:00:26.000Z</time>
      </trkpt>
      <trkpt lat="45.82786" lon="4.8272">
        <ele>401.9</ele>
        <time>2015-06-20T07:00:28.000Z</time>
      </trkpt>
      <trkpt lat="45.82784" lon="4.82722">
        <ele>401.5</ele>
        <time>2015-06-20T07:00:31.000Z</time>
      </trkpt>
      <trkpt lat="45.82776" lon="4.82729">
        <ele>399.4</ele>
        <time>2015-06-20T07:00:38.000Z</time>
      </trkpt>
      <trkpt lat="45.82775" lon="4.8273">
        <ele>399.2</ele>
        <time>2015-06-20T07:00:39.000Z</time>
      </trkpt>
      <trkpt lat="45.82765" lon="4.82734">
        <ele>397.3</ele>
        <time>2015-06-20T07:00:44.000Z</time>
      </trkpt>
      <trkpt lat="45.82762" lon="4.82735">
        <ele>396.8</ele>
        <time>2015-06-20T07:00:45.000Z</time>
      </trkpt>
      <trkpt lat="45.8275" lon="4.82735">
        <ele>395.8</ele>
        <time>2015-06-20T07:00:52.000Z</time>
      </trkpt>
      <trkpt lat="45.82748" lon="4.82735">
        <ele>395.3</ele>
        <time>2015-06-20T07:00:53.000Z</time>
      </trkpt>
      <trkpt lat="45.82735" lon="4.82734">
        <ele>392.9</ele>
        <time>2015-06-20T07:00:59.000Z</time>
      </trkpt>
      <trkpt lat="45.82733" lon="4.82734">
        <ele>392.5</ele>
        <time>2015-06-20T07:01:00.000Z</time>
      </trkpt>
      <trkpt lat="45.8272" lon="4.82732">
        <ele>389.8</ele>
        <time>2015-06-20T07:01:06.000Z</time>
      </trkpt>
      <trkpt lat="45.82709" lon="4.82728">
        <ele>386.2</ele>
        <time>2015-06-20T07:01:11.000Z</time>
      </trkpt>
      <trkpt lat="45.82693" lon="4.82718">
        <ele>382.8</ele>
        <time>2015-06-20T07:01:19.000Z</time>
      </trkpt>
      <trkpt lat="45.8268" lon="4.82707">
        <ele>380</ele>
        <time>2015-06-20T07:01:25.000Z</time>
      </trkpt>
      <trkpt lat="45.82669" lon="4.82697">
        <ele>379.1</ele>
        <time>2015-06-20T07:01:31.000Z</time>
      </trkpt>
      <trkpt lat="45.82656" lon="4.82685">
        <ele>375.9</ele>
        <time>2015-06-20T07:01:38.000Z</time>
      </trkpt>
      <trkpt lat="45.82646" lon="4.82679">
        <ele>373.1</ele>
        <time>2015-06-20T07:01:43.000Z</time>
      </trkpt>
      <trkpt lat="45.82634" lon="4.8267">
        <ele>371.8</ele>
        <time>2015-06-20T07:01:49.000Z</time>
      </trkpt>
      <trkpt lat="45.8262" lon="4.82664">
        <ele>368.8</ele>
        <time>2015-06-20T07:01:55.000Z</time>
      </trkpt>
      <trkpt lat="45.82606" lon="4.82659">
        <ele>365.9</ele>
        <time>2015-06-20T07:02:01.000Z</time>
      </trkpt>
      <trkpt lat="45.82604" lon="4.82658">
        <ele>365.7</ele>
        <time>2015-06-20T07:02:02.000Z</time>
      </trkpt>
      <trkpt lat="45.82596" lon="4.8265">
        <ele>366.1</ele>
        <time>2015-06-20T07:02:07.000Z</time>
      </trkpt>
      <trkpt lat="45.82591" lon="4.82649">
        <ele>365.5</ele>
        <time>2015-06-20T07:02:09.000Z</time>
      </trkpt>
      <trkpt lat="45.82576" lon="4.82647">
        <ele>362.6</ele>
        <time>2015-06-20T07:02:16.000Z</time>
      </trkpt>
      <trkpt lat="45.82566" lon="4.82645">
        <ele>360.6</ele>
        <time>2015-06-20T07:02:21.000Z</time>
      </trkpt>
      <trkpt lat="45.82559" lon="4.82648">
        <ele>358.2</ele>
        <time>2015-06-20T07:02:25.000Z</time>
      </trkpt>
      <trkpt lat="45.82552" lon="4.82656">
        <ele>356.3</ele>
        <time>2015-06-20T07:02:30.000Z</time>
      </trkpt>
      <trkpt lat="45.82551" lon="4.8266">
        <ele>355.8</ele>
        <time>2015-06-20T07:02:32.000Z</time>
      </trkpt>
      <trkpt lat="45.82548" lon="4.8267">
        <ele>354.3</ele>
        <time>2015-06-20T07:02:36.000Z</time>
      </trkpt>
      <trkpt lat="45.82546" lon="4.82685">
        <ele>351.9</ele>
        <time>2015-06-20T07:02:42.000Z</time>
      </trkpt>
      <trkpt lat="45.82547" lon="4.82701">
        <ele>349.1</ele>
        <time>2015-06-20T07:02:48.000Z</time>
      </trkpt>
      <trkpt lat="45.82553" lon="4.82707">
        <ele>348.6</ele>
        <time>2015-06-20T07:02:53.000Z</time>
      </trkpt>
      <trkpt lat="45.82555" lon="4.82708">
        <ele>348.5</ele>
        <time>2015-06-20T07:02:54.000Z</time>
      </trkpt>
      <trkpt lat="45.82559" lon="4.82709">
        <ele>348.7</ele>
        <time>2015-06-20T07:02:56.000Z</time>
      </trkpt>
      <trkpt lat="45.82571" lon="4.82714">
        <ele>349.2</ele>
        <time>2015-06-20T07:03:02.000Z</time>
      </trkpt>
      <trkpt lat="45.82575" lon="4.82714">
        <ele>349.6</ele>
        <time>2015-06-20T07:03:04.000Z</time>
      </trkpt>
      <trkpt lat="45.82585" lon="4.82715">
        <ele>350.4</ele>
        <time>2015-06-20T07:03:09.000Z</time>
      </trkpt>
      <trkpt lat="45.82587" lon="4.82716">
        <ele>350.4</ele>
        <time>2015-06-20T07:03:10.000Z</time>
      </trkpt>
      <trkpt lat="45.82598" lon="4.82719">
        <ele>351</ele>
        <time>2015-06-20T07:03:15.000Z</time>
      </trkpt>
      <trkpt lat="45.82602" lon="4.8272">
        <ele>351.3</ele>
        <time>2015-06-20T07:03:17.000Z</time>
      </trkpt>
      <trkpt lat="45.82607" lon="4.82722">
        <ele>351.6</ele>
        <time>2015-06-20T07:03:21.000Z</time>
      </trkpt>
      <trkpt lat="45.82616" lon="4.82728">
        <ele>352.1</ele>
        <time>2015-06-20T07:03:26.000Z</time>
      </trkpt>
      <trkpt lat="45.82624" lon="4.82734">
        <ele>352.5</ele>
        <time>2015-06-20T07:03:32.000Z</time>
      </trkpt>
      <trkpt lat="45.82626" lon="4.82735">
        <ele>352.5</ele>
        <time>2015-06-20T07:03:33.000Z</time>
      </trkpt>
      <trkpt lat="45.82631" lon="4.82744">
        <ele>351.8</ele>
        <time>2015-06-20T07:03:38.000Z</time>
      </trkpt>
      <trkpt lat="45.82642" lon="4.82754">
        <ele>352.4</ele>
        <time>2015-06-20T07:03:45.000Z</time>
      </trkpt>
      <trkpt lat="45.82644" lon="4.82756">
        <ele>352.6</ele>
        <time>2015-06-20T07:03:46.000Z</time>
      </trkpt>
      <trkpt lat="45.8265" lon="4.82763">
        <ele>353.3</ele>
        <time>2015-06-20T07:03:50.000Z</time>
      </trkpt>
      <trkpt lat="45.82653" lon="4.82766">
        <ele>353.6</ele>
        <time>2015-06-20T07:03:52.000Z</time>
      </trkpt>
      <trkpt lat="45.82662" lon="4.82782">
        <ele>353</ele>
        <time>2015-06-20T07:03:58.000Z</time>
      </trkpt>
      <trkpt lat="45.82664" lon="4.82787">
        <ele>353</ele>
        <time>2015-06-20T07:04:00.000Z</time>
      </trkpt>
      <trkpt lat="45.8267" lon="4.82797">
        <ele>353</ele>
        <time>2015-06-20T07:04:04.000Z</time>
      </trkpt>
      <trkpt lat="45.8268" lon="4.82809">
        <ele>354</ele>
        <time>2015-06-20T07:04:09.000Z</time>
      </trkpt>
      <trkpt lat="45.82685" lon="4.8282">
        <ele>354.7</ele>
        <time>2015-06-20T07:04:13.000Z</time>
      </trkpt>
      <trkpt lat="45.82686" lon="4.82823">
        <ele>354.8</ele>
        <time>2015-06-20T07:04:14.000Z</time>
      </trkpt>
      <trkpt lat="45.82689" lon="4.82836">
        <ele>355</ele>
        <time>2015-06-20T07:04:19.000Z</time>
      </trkpt>
      <trkpt lat="45.82698" lon="4.82847">
        <ele>354.9</ele>
        <time>2015-06-20T07:04:25.000Z</time>
      </trkpt>
      <trkpt lat="45.82701" lon="4.82852">
        <ele>354.6</ele>
        <time>2015-06-20T07:04:27.000Z</time>
      </trkpt>
      <trkpt lat="45.82708" lon="4.82862">
        <ele>354.3</ele>
        <time>2015-06-20T07:04:32.000Z</time>
      </trkpt>
      <trkpt lat="45.82717" lon="4.82868">
        <ele>355</ele>
        <time>2015-06-20T07:04:36.000Z</time>
      </trkpt>
      <trkpt lat="45.82726" lon="4.82872">
        <ele>355.5</ele>
        <time>2015-06-20T07:04:40.000Z</time>
      </trkpt>
      <trkpt lat="45.82735" lon="4.82875">
        <ele>355.2</ele>
        <time>2015-06-20T07:04:44.000Z</time>
      </trkpt>
      <trkpt lat="45.82749" lon="4.82877">
        <ele>355.5</ele>
        <time>2015-06-20T07:04:51.000Z</time>
      </trkpt>
      <trkpt lat="45.82752" lon="4.82877">
        <ele>355.4</ele>
        <time>2015-06-20T07:04:52.000Z</time>
      </trkpt>
      <trkpt lat="45.82755" lon="4.82878">
        <ele>355.2</ele>
        <time>2015-06-20T07:04:53.000Z</time>
      </trkpt>
      <trkpt lat="45.82765" lon="4.82883">
        <ele>353.8</ele>
        <time>2015-06-20T07:04:57.000Z</time>
      </trkpt>
      <trkpt lat="45.82773" lon="4.82884">
        <ele>353.4</ele>
        <time>2015-06-20T07:05:00.000Z</time>
      </trkpt>
      <trkpt lat="45.82786" lon="4.82883">
        <ele>353.1</ele>
        <time>2015-06-20T07:05:06.000Z</time>
      </trkpt>
      <trkpt lat="45.82796" lon="4.82886">
        <ele>352.1</ele>
        <time>2015-06-20T07:05:11.000Z</time>
      </trkpt>
      <trkpt lat="45.82809" lon="4.82886">
        <ele>351.6</ele>
        <time>2015-06-20T07:05:17.000Z</time>
      </trkpt>
      <trkpt lat="45.82811" lon="4.82885">
        <ele>351.6</ele>
        <time>2015-06-20T07:05:19.000Z</time>
      </trkpt>
      <trkpt lat="45.82819" lon="4.82881">
        <ele>352.1</ele>
        <time>2015-06-20T07:05:23.000Z</time>
      </trkpt>
      <trkpt lat="45.82827" lon="4.82881">
        <ele>351.6</ele>
        <time>2015-06-20T07:05:27.000Z</time>
      </trkpt>
      <trkpt lat="45.82831" lon="4.82882">
        <ele>351.2</ele>
        <time>2015-06-20T07:05:29.000Z</time>
      </trkpt>
      <trkpt lat="45.82845" lon="4.82883">
        <ele>349.9</ele>
        <time>2015-06-20T07:05:34.000Z</time>
      </trkpt>
      <trkpt lat="45.82857" lon="4.82882">
        <ele>349</ele>
        <time>2015-06-20T07:05:40.000Z</time>
      </trkpt>
      <trkpt lat="45.82871" lon="4.82882">
        <ele>347.8</ele>
        <time>2015-06-20T07:05:45.000Z</time>
      </trkpt>
      <trkpt lat="45.82881" lon="4.82877">
        <ele>347.9</ele>
        <time>2015-06-20T07:05:49.000Z</time>
      </trkpt>
      <trkpt lat="45.82884" lon="4.82877">
        <ele>347.6</ele>
        <time>2015-06-20T07:05:51.000Z</time>
      </trkpt>
      <trkpt lat="45.82897" lon="4.82871">
        <ele>347.1</ele>
        <time>2015-06-20T07:05:57.000Z</time>
      </trkpt>
      <trkpt lat="45.82905" lon="4.82867">
        <ele>346.7</ele>
        <time>2015-06-20T07:06:00.000Z</time>
      </trkpt>
      <trkpt lat="45.82914" lon="4.82863">
        <ele>345.9</ele>
        <time>2015-06-20T07:06:05.000Z</time>
      </trkpt>
      <trkpt lat="45.82921" lon="4.8286">
        <ele>345.4</ele>
        <time>2015-06-20T07:06:08.000Z</time>
      </trkpt>
      <trkpt lat="45.8293" lon="4.82853">
        <ele>345.4</ele>
        <time>2015-06-20T07:06:13.000Z</time>
      </trkpt>
      <trkpt lat="45.82936" lon="4.82847">
        <ele>345.4</ele>
        <time>2015-06-20T07:06:17.000Z</time>
      </trkpt>
      <trkpt lat="45.82941" lon="4.82843">
        <ele>344.9</ele>
        <time>2015-06-20T07:06:19.000Z</time>
      </trkpt>
      <trkpt lat="45.82949" lon="4.82833">
        <ele>344.7</ele>
        <time>2015-06-20T07:06:24.000Z</time>
      </trkpt>
      <trkpt lat="45.8295" lon="4.82831">
        <ele>344.9</ele>
        <time>2015-06-20T07:06:25.000Z</time>
      </trkpt>
      <trkpt lat="45.82956" lon="4.8282">
        <ele>345.6</ele>
        <time>2015-06-20T07:06:30.000Z</time>
      </trkpt>
      <trkpt lat="45.82963" lon="4.82811">
        <ele>345.2</ele>
        <time>2015-06-20T07:06:34.000Z</time>
      </trkpt>
      <trkpt lat="45.8297" lon="4.82804">
        <ele>344.4</ele>
        <time>2015-06-20T07:06:37.000Z</time>
      </trkpt>
      <trkpt lat="45.82976" lon="4.82798">
        <ele>343.6</ele>
        <time>2015-06-20T07:06:40.000Z</time>
      </trkpt>
      <trkpt lat="45.82983" lon="4.82785">
        <ele>344.1</ele>
        <time>2015-06-20T07:06:45.000Z</time>
      </trkpt>
      <trkpt lat="45.82984" lon="4.82783">
        <ele>344.1</ele>
        <time>2015-06-20T07:06:46.000Z</time>
      </trkpt>
      <trkpt lat="45.82989" lon="4.82777">
        <ele>343.7</ele>
        <time>2015-06-20T07:06:50.000Z</time>
      </trkpt>
      <trkpt lat="45.82992" lon="4.82774">
        <ele>343.4</ele>
        <time>2015-06-20T07:06:51.000Z</time>
      </trkpt>
      <trkpt lat="45.82999" lon="4.82766">
        <ele>343</ele>
        <time>2015-06-20T07:06:55.000Z</time>
      </trkpt>
      <trkpt lat="45.83" lon="4.82764">
        <ele>343.1</ele>
        <time>2015-06-20T07:06:56.000Z</time>
      </trkpt>
      <trkpt lat="45.83005" lon="4.82756">
        <ele>343.7</ele>
        <time>2015-06-20T07:07:00.000Z</time>
      </trkpt>
      <trkpt lat="45.83014" lon="4.82742">
        <ele>344.4</ele>
        <time>2015-06-20T07:07:06.000Z</time>
      </trkpt>
      <trkpt lat="45.83023" lon="4.82725">
        <ele>344.8</ele>
        <time>2015-06-20T07:07:12.000Z</time>
      </trkpt>
      <trkpt lat="45.83028" lon="4.82713">
        <ele>345.3</ele>
        <time>2015-06-20T07:07:16.000Z</time>
      </trkpt>
      <trkpt lat="45.83032" lon="4.82704">
        <ele>345.1</ele>
        <time>2015-06-20T07:07:20.000Z</time>
      </trkpt>
      <trkpt lat="45.83033" lon="4.82701">
        <ele>344.9</ele>
        <time>2015-06-20T07:07:21.000Z</time>
      </trkpt>
      <trkpt lat="45.83036" lon="4.82697">
        <ele>344.5</ele>
        <time>2015-06-20T07:07:23.000Z</time>
      </trkpt>
      <trkpt lat="45.8304" lon="4.8269">
        <ele>344</ele>
        <time>2015-06-20T07:07:27.000Z</time>
      </trkpt>
      <trkpt lat="45.83047" lon="4.82683">
        <ele>342.8</ele>
        <time>2015-06-20T07:07:30.000Z</time>
      </trkpt>
      <trkpt lat="45.83062" lon="4.82669">
        <ele>340.9</ele>
        <time>2015-06-20T07:07:37.000Z</time>
      </trkpt>
      <trkpt lat="45.83066" lon="4.82662">
        <ele>341.9</ele>
        <time>2015-06-20T07:07:40.000Z</time>
      </trkpt>
      <trkpt lat="45.83073" lon="4.82649">
        <ele>343.8</ele>
        <time>2015-06-20T07:07:45.000Z</time>
      </trkpt>
      <trkpt lat="45.83075" lon="4.82647">
        <ele>343.7</ele>
        <time>2015-06-20T07:07:46.000Z</time>
      </trkpt>
      <trkpt lat="45.83081" lon="4.82639">
        <ele>343.7</ele>
        <time>2015-06-20T07:07:49.000Z</time>
      </trkpt>
      <trkpt lat="45.83086" lon="4.82627">
        <ele>343.9</ele>
        <time>2015-06-20T07:07:53.000Z</time>
      </trkpt>
      <trkpt lat="45.83092" lon="4.82613">
        <ele>343.5</ele>
        <time>2015-06-20T07:07:57.000Z</time>
      </trkpt>
      <trkpt lat="45.83094" lon="4.82611">
        <ele>343.3</ele>
        <time>2015-06-20T07:07:58.000Z</time>
      </trkpt>
      <trkpt lat="45.831" lon="4.82595">
        <ele>343.5</ele>
        <time>2015-06-20T07:08:03.000Z</time>
      </trkpt>
      <trkpt lat="45.83107" lon="4.82581">
        <ele>342.5</ele>
        <time>2015-06-20T07:08:08.000Z</time>
      </trkpt>
      <trkpt lat="45.83107" lon="4.82579">
        <ele>342.7</ele>
        <time>2015-06-20T07:08:09.000Z</time>
      </trkpt>
      <trkpt lat="45.83109" lon="4.82578">
        <ele>341.9</ele>
        <time>2015-06-20T07:08:14.000Z</time>
      </trkpt>
      <trkpt lat="45.83117" lon="4.82568">
        <ele>340.5</ele>
        <time>2015-06-20T07:08:20.000Z</time>
      </trkpt>
      <trkpt lat="45.83121" lon="4.82557">
        <ele>341</ele>
        <time>2015-06-20T07:08:24.000Z</time>
      </trkpt>
      <trkpt lat="45.83121" lon="4.82554">
        <ele>341.1</ele>
        <time>2015-06-20T07:08:25.000Z</time>
      </trkpt>
      <trkpt lat="45.83121" lon="4.82552">
        <ele>341.5</ele>
        <time>2015-06-20T07:08:26.000Z</time>
      </trkpt>
      <trkpt lat="45.83124" lon="4.8254">
        <ele>342.1</ele>
        <time>2015-06-20T07:08:30.000Z</time>
      </trkpt>
      <trkpt lat="45.83124" lon="4.82537">
        <ele>342.1</ele>
        <time>2015-06-20T07:08:31.000Z</time>
      </trkpt>
      <trkpt lat="45.83124" lon="4.82534">
        <ele>342.5</ele>
        <time>2015-06-20T07:08:32.000Z</time>
      </trkpt>
      <trkpt lat="45.83129" lon="4.82518">
        <ele>342.4</ele>
        <time>2015-06-20T07:08:37.000Z</time>
      </trkpt>
      <trkpt lat="45.83129" lon="4.82516">
        <ele>342.3</ele>
        <time>2015-06-20T07:08:38.000Z</time>
      </trkpt>
      <trkpt lat="45.83129" lon="4.82512">
        <ele>342.6</ele>
        <time>2015-06-20T07:08:39.000Z</time>
      </trkpt>
      <trkpt lat="45.83131" lon="4.82494">
        <ele>343.1</ele>
        <time>2015-06-20T07:08:44.000Z</time>
      </trkpt>
      <trkpt lat="45.83131" lon="4.82477">
        <ele>344.1</ele>
        <time>2015-06-20T07:08:49.000Z</time>
      </trkpt>
      <trkpt lat="45.83131" lon="4.82469">
        <ele>344.5</ele>
        <time>2015-06-20T07:08:51.000Z</time>
      </trkpt>
      <trkpt lat="45.8313" lon="4.82464">
        <ele>345.2</ele>
        <time>2015-06-20T07:08:53.000Z</time>
      </trkpt>
      <trkpt lat="45.83128" lon="4.82451">
        <ele>346</ele>
        <time>2015-06-20T07:08:57.000Z</time>
      </trkpt>
      <trkpt lat="45.83128" lon="4.82437">
        <ele>346.2</ele>
        <time>2015-06-20T07:09:01.000Z</time>
      </trkpt>
      <trkpt lat="45.83127" lon="4.82423">
        <ele>347</ele>
        <time>2015-06-20T07:09:06.000Z</time>
      </trkpt>
      <trkpt lat="45.83127" lon="4.82422">
        <ele>347.3</ele>
        <time>2015-06-20T07:09:07.000Z</time>
      </trkpt>
      <trkpt lat="45.83126" lon="4.82416">
        <ele>347.7</ele>
        <time>2015-06-20T07:09:09.000Z</time>
      </trkpt>
      <trkpt lat="45.83129" lon="4.82403">
        <ele>346.8</ele>
        <time>2015-06-20T07:09:13.000Z</time>
      </trkpt>
      <trkpt lat="45.8313" lon="4.8239">
        <ele>346.6</ele>
        <time>2015-06-20T07:09:17.000Z</time>
      </trkpt>
      <trkpt lat="45.83132" lon="4.82378">
        <ele>346.4</ele>
        <time>2015-06-20T07:09:21.000Z</time>
      </trkpt>
      <trkpt lat="45.83131" lon="4.82369">
        <ele>346.7</ele>
        <time>2015-06-20T07:09:25.000Z</time>
      </trkpt>
      <trkpt lat="45.83131" lon="4.82367">
        <ele>346.7</ele>
        <time>2015-06-20T07:09:26.000Z</time>
      </trkpt>
      <trkpt lat="45.83132" lon="4.82364">
        <ele>346.6</ele>
        <time>2015-06-20T07:09:27.000Z</time>
      </trkpt>
      <trkpt lat="45.8313" lon="4.82354">
        <ele>347.2</ele>
        <time>2015-06-20T07:09:31.000Z</time>
      </trkpt>
      <trkpt lat="45.8313" lon="4.82346">
        <ele>347.3</ele>
        <time>2015-06-20T07:09:34.000Z</time>
      </trkpt>
      <trkpt lat="45.8313" lon="4.82336">
        <ele>347.3</ele>
        <time>2015-06-20T07:09:38.000Z</time>
      </trkpt>
      <trkpt lat="45.83126" lon="4.8232">
        <ele>348.3</ele>
        <time>2015-06-20T07:09:43.000Z</time>
      </trkpt>
      <trkpt lat="45.83123" lon="4.82307">
        <ele>349.3</ele>
        <time>2015-06-20T07:09:48.000Z</time>
      </trkpt>
      <trkpt lat="45.83122" lon="4.82304">
        <ele>349.4</ele>
        <time>2015-06-20T07:09:49.000Z</time>
      </trkpt>
      <trkpt lat="45.83119" lon="4.82291">
        <ele>350.3</ele>
        <time>2015-06-20T07:09:54.000Z</time>
      </trkpt>
      <trkpt lat="45.83119" lon="4.82279">
        <ele>349.6</ele>
        <time>2015-06-20T07:09:59.000Z</time>
      </trkpt>
      <trkpt lat="45.83117" lon="4.82272">
        <ele>350.8</ele>
        <time>2015-06-20T07:10:03.000Z</time>
      </trkpt>
      <trkpt lat="45.83116" lon="4.8227">
        <ele>350.9</ele>
        <time>2015-06-20T07:10:04.000Z</time>
      </trkpt>
      <trkpt lat="45.83116" lon="4.82265">
        <ele>350.8</ele>
        <time>2015-06-20T07:10:06.000Z</time>
      </trkpt>
      <trkpt lat="45.83115" lon="4.82253">
        <ele>351.5</ele>
        <time>2015-06-20T07:10:12.000Z</time>
      </trkpt>
      <trkpt lat="45.83114" lon="4.82246">
        <ele>352.1</ele>
        <time>2015-06-20T07:10:15.000Z</time>
      </trkpt>
      <trkpt lat="45.83113" lon="4.82235">
        <ele>353.2</ele>
        <time>2015-06-20T07:10:20.000Z</time>
      </trkpt>
      <trkpt lat="45.83113" lon="4.82226">
        <ele>353.8</ele>
        <time>2015-06-20T07:10:24.000Z</time>
      </trkpt>
      <trkpt lat="45.83108" lon="4.82213">
        <ele>356.1</ele>
        <time>2015-06-20T07:10:31.000Z</time>
      </trkpt>
      <trkpt lat="45.83107" lon="4.8221">
        <ele>357</ele>
        <time>2015-06-20T07:10:33.000Z</time>
      </trkpt>
      <trkpt lat="45.83102" lon="4.82201">
        <ele>359</ele>
        <time>2015-06-20T07:10:38.000Z</time>
      </trkpt>
      <trkpt lat="45.83101" lon="4.82199">
        <ele>359.3</ele>
        <time>2015-06-20T07:10:39.000Z</time>
      </trkpt>
      <trkpt lat="45.83095" lon="4.82188">
        <ele>361.9</ele>
        <time>2015-06-20T07:10:45.000Z</time>
      </trkpt>
      <trkpt lat="45.83092" lon="4.82174">
        <ele>361</ele>
        <time>2015-06-20T07:10:51.000Z</time>
      </trkpt>
      <trkpt lat="45.83089" lon="4.82167">
        <ele>361.1</ele>
        <time>2015-06-20T07:10:54.000Z</time>
      </trkpt>
      <trkpt lat="45.83084" lon="4.82159">
        <ele>361.7</ele>
        <time>2015-06-20T07:10:59.000Z</time>
      </trkpt>
      <trkpt lat="45.8308" lon="4.82155">
        <ele>362.5</ele>
        <time>2015-06-20T07:11:03.000Z</time>
      </trkpt>
      <trkpt lat="45.83078" lon="4.82148">
        <ele>362</ele>
        <time>2015-06-20T07:11:07.000Z</time>
      </trkpt>
      <trkpt lat="45.83076" lon="4.82143">
        <ele>361.9</ele>
        <time>2015-06-20T07:11:10.000Z</time>
      </trkpt>
      <trkpt lat="45.83069" lon="4.82135">
        <ele>363</ele>
        <time>2015-06-20T07:11:16.000Z</time>
      </trkpt>
      <trkpt lat="45.83067" lon="4.82132">
        <ele>363.5</ele>
        <time>2015-06-20T07:11:18.000Z</time>
      </trkpt>
      <trkpt lat="45.83066" lon="4.82129">
        <ele>363.3</ele>
        <time>2015-06-20T07:11:20.000Z</time>
      </trkpt>
      <trkpt lat="45.83062" lon="4.82122">
        <ele>363.7</ele>
        <time>2015-06-20T07:11:25.000Z</time>
      </trkpt>
      <trkpt lat="45.83057" lon="4.82116">
        <ele>365.4</ele>
        <time>2015-06-20T07:11:30.000Z</time>
      </trkpt>
      <trkpt lat="45.83051" lon="4.82108">
        <ele>366</ele>
        <time>2015-06-20T07:11:35.000Z</time>
      </trkpt>
      <trkpt lat="45.83049" lon="4.82106">
        <ele>366.1</ele>
        <time>2015-06-20T07:11:36.000Z</time>
      </trkpt>
      <trkpt lat="45.83046" lon="4.821">
        <ele>366.2</ele>
        <time>2015-06-20T07:11:40.000Z</time>
      </trkpt>
      <trkpt lat="45.83039" lon="4.8209">
        <ele>367.2</ele>
        <time>2015-06-20T07:11:45.000Z</time>
      </trkpt>
      <trkpt lat="45.83034" lon="4.82084">
        <ele>369</ele>
        <time>2015-06-20T07:11:49.000Z</time>
      </trkpt>
      <trkpt lat="45.83032" lon="4.82083">
        <ele>369.4</ele>
        <time>2015-06-20T07:11:50.000Z</time>
      </trkpt>
      <trkpt lat="45.8303" lon="4.82081">
        <ele>370.4</ele>
        <time>2015-06-20T07:11:52.000Z</time>
      </trkpt>
      <trkpt lat="45.83023" lon="4.82072">
        <ele>371.3</ele>
        <time>2015-06-20T07:11:57.000Z</time>
      </trkpt>
      <trkpt lat="45.8302" lon="4.82067">
        <ele>371.2</ele>
        <time>2015-06-20T07:12:00.000Z</time>
      </trkpt>
      <trkpt lat="45.83017" lon="4.82059">
        <ele>370.7</ele>
        <time>2015-06-20T07:12:05.000Z</time>
      </trkpt>
      <trkpt lat="45.83012" lon="4.82048">
        <ele>370.2</ele>
        <time>2015-06-20T07:12:10.000Z</time>
      </trkpt>
      <trkpt lat="45.83007" lon="4.82041">
        <ele>370.7</ele>
        <time>2015-06-20T07:12:13.000Z</time>
      </trkpt>
      <trkpt lat="45.83003" lon="4.82034">
        <ele>371.5</ele>
        <time>2015-06-20T07:12:17.000Z</time>
      </trkpt>
      <trkpt lat="45.82998" lon="4.82027">
        <ele>372.1</ele>
        <time>2015-06-20T07:12:22.000Z</time>
      </trkpt>
      <trkpt lat="45.82993" lon="4.82019">
        <ele>371.6</ele>
        <time>2015-06-20T07:12:27.000Z</time>
      </trkpt>
      <trkpt lat="45.82991" lon="4.82017">
        <ele>371.5</ele>
        <time>2015-06-20T07:12:28.000Z</time>
      </trkpt>
      <trkpt lat="45.82984" lon="4.82007">
        <ele>370.9</ele>
        <time>2015-06-20T07:12:33.000Z</time>
      </trkpt>
      <trkpt lat="45.82983" lon="4.82003">
        <ele>370.4</ele>
        <time>2015-06-20T07:12:35.000Z</time>
      </trkpt>
      <trkpt lat="45.82985" lon="4.82">
        <ele>369.7</ele>
        <time>2015-06-20T07:12:37.000Z</time>
      </trkpt>
      <trkpt lat="45.8299" lon="4.81996">
        <ele>369.6</ele>
        <time>2015-06-20T07:12:42.000Z</time>
      </trkpt>
      <trkpt lat="45.82991" lon="4.81995">
        <ele>369.6</ele>
        <time>2015-06-20T07:12:43.000Z</time>
      </trkpt>
      <trkpt lat="45.82994" lon="4.81993">
        <ele>369.5</ele>
        <time>2015-06-20T07:12:47.000Z</time>
      </trkpt>
      <trkpt lat="45.82998" lon="4.81987">
        <ele>370.2</ele>
        <time>2015-06-20T07:12:52.000Z</time>
      </trkpt>
      <trkpt lat="45.82999" lon="4.81986">
        <ele>370.3</ele>
        <time>2015-06-20T07:12:53.000Z</time>
      </trkpt>
      <trkpt lat="45.83" lon="4.81983">
        <ele>370.7</ele>
        <time>2015-06-20T07:12:55.000Z</time>
      </trkpt>
      <trkpt lat="45.83002" lon="4.81976">
        <ele>371.8</ele>
        <time>2015-06-20T07:12:59.000Z</time>
      </trkpt>
      <trkpt lat="45.83005" lon="4.81968">
        <ele>373.1</ele>
        <time>2015-06-20T07:13:03.000Z</time>
      </trkpt>
      <trkpt lat="45.83005" lon="4.81966">
        <ele>373.3</ele>
        <time>2015-06-20T07:13:04.000Z</time>
      </trkpt>
      <trkpt lat="45.83008" lon="4.81959">
        <ele>374.2</ele>
        <time>2015-06-20T07:13:08.000Z</time>
      </trkpt>
      <trkpt lat="45.83014" lon="4.81946">
        <ele>375.3</ele>
        <time>2015-06-20T07:13:14.000Z</time>
      </trkpt>
      <trkpt lat="45.83013" lon="4.81938">
        <ele>375.9</ele>
        <time>2015-06-20T07:13:18.000Z</time>
      </trkpt>
      <trkpt lat="45.83014" lon="4.81934">
        <ele>375.6</ele>
        <time>2015-06-20T07:13:21.000Z</time>
      </trkpt>
      <trkpt lat="45.83014" lon="4.81927">
        <ele>375.4</ele>
        <time>2015-06-20T07:13:25.000Z</time>
      </trkpt>
      <trkpt lat="45.83013" lon="4.8192">
        <ele>376</ele>
        <time>2015-06-20T07:13:28.000Z</time>
      </trkpt>
      <trkpt lat="45.83012" lon="4.81914">
        <ele>376.1</ele>
        <time>2015-06-20T07:13:31.000Z</time>
      </trkpt>
      <trkpt lat="45.83006" lon="4.81905">
        <ele>379.2</ele>
        <time>2015-06-20T07:13:36.000Z</time>
      </trkpt>
      <trkpt lat="45.83005" lon="4.81901">
        <ele>379.6</ele>
        <time>2015-06-20T07:13:38.000Z</time>
      </trkpt>
      <trkpt lat="45.83002" lon="4.81895">
        <ele>381.6</ele>
        <time>2015-06-20T07:13:40.000Z</time>
      </trkpt>
      <trkpt lat="45.83" lon="4.81889">
        <ele>382.9</ele>
        <time>2015-06-20T07:13:43.000Z</time>
      </trkpt>
      <trkpt lat="45.82997" lon="4.81879">
        <ele>382</ele>
        <time>2015-06-20T07:13:48.000Z</time>
      </trkpt>
      <trkpt lat="45.82997" lon="4.8187">
        <ele>380.3</ele>
        <time>2015-06-20T07:13:53.000Z</time>
      </trkpt>
      <trkpt lat="45.82993" lon="4.81861">
        <ele>380.8</ele>
        <time>2015-06-20T07:13:57.000Z</time>
      </trkpt>
      <trkpt lat="45.82989" lon="4.81853">
        <ele>382</ele>
        <time>2015-06-20T07:14:01.000Z</time>
      </trkpt>
      <trkpt lat="45.82986" lon="4.81843">
        <ele>382.1</ele>
        <time>2015-06-20T07:14:05.000Z</time>
      </trkpt>
      <trkpt lat="45.82984" lon="4.8184">
        <ele>383.3</ele>
        <time>2015-06-20T07:14:07.000Z</time>
      </trkpt>
      <trkpt lat="45.8298" lon="4.81832">
        <ele>384.6</ele>
        <time>2015-06-20T07:14:11.000Z</time>
      </trkpt>
      <trkpt lat="45.82976" lon="4.8182">
        <ele>384.9</ele>
        <time>2015-06-20T07:14:17.000Z</time>
      </trkpt>
      <trkpt lat="45.82976" lon="4.81818">
        <ele>385</ele>
        <time>2015-06-20T07:14:19.000Z</time>
      </trkpt>
      <trkpt lat="45.82975" lon="4.81815">
        <ele>384.5</ele>
        <time>2015-06-20T07:14:21.000Z</time>
      </trkpt>
      <trkpt lat="45.82973" lon="4.81809">
        <ele>385.3</ele>
        <time>2015-06-20T07:14:25.000Z</time>
      </trkpt>
      <trkpt lat="45.82972" lon="4.81805">
        <ele>385</ele>
        <time>2015-06-20T07:14:28.000Z</time>
      </trkpt>
      <trkpt lat="45.82972" lon="4.81801">
        <ele>383.3</ele>
        <time>2015-06-20T07:14:31.000Z</time>
      </trkpt>
      <trkpt lat="45.82969" lon="4.81797">
        <ele>383.8</ele>
        <time>2015-06-20T07:14:35.000Z</time>
      </trkpt>
      <trkpt lat="45.82961" lon="4.81788">
        <ele>385.8</ele>
        <time>2015-06-20T07:14:43.000Z</time>
      </trkpt>
      <trkpt lat="45.82958" lon="4.81785">
        <ele>386.4</ele>
        <time>2015-06-20T07:14:45.000Z</time>
      </trkpt>
      <trkpt lat="45.82954" lon="4.81779">
        <ele>387.2</ele>
        <time>2015-06-20T07:14:51.000Z</time>
      </trkpt>
      <trkpt lat="45.82953" lon="4.81779">
        <ele>387.9</ele>
        <time>2015-06-20T07:14:52.000Z</time>
      </trkpt>
      <trkpt lat="45.82943" lon="4.81772">
        <ele>391.7</ele>
        <time>2015-06-20T07:14:59.000Z</time>
      </trkpt>
      <trkpt lat="45.82942" lon="4.81771">
        <ele>391.8</ele>
        <time>2015-06-20T07:15:00.000Z</time>
      </trkpt>
      <trkpt lat="45.82936" lon="4.81769">
        <ele>394.2</ele>
        <time>2015-06-20T07:15:05.000Z</time>
      </trkpt>
      <trkpt lat="45.82935" lon="4.8177">
        <ele>394.8</ele>
        <time>2015-06-20T07:15:06.000Z</time>
      </trkpt>
      <trkpt lat="45.82933" lon="4.81768">
        <ele>395.2</ele>
        <time>2015-06-20T07:15:09.000Z</time>
      </trkpt>
      <trkpt lat="45.82933" lon="4.81764">
        <ele>394</ele>
        <time>2015-06-20T07:15:12.000Z</time>
      </trkpt>
      <trkpt lat="45.82932" lon="4.81758">
        <ele>391.7</ele>
        <time>2015-06-20T07:15:19.000Z</time>
      </trkpt>
      <trkpt lat="45.82932" lon="4.81754">
        <ele>390.7</ele>
        <time>2015-06-20T07:15:22.000Z</time>
      </trkpt>
      <trkpt lat="45.82929" lon="4.8174">
        <ele>387.6</ele>
        <time>2015-06-20T07:15:29.000Z</time>
      </trkpt>
      <trkpt lat="45.82928" lon="4.81738">
        <ele>387.2</ele>
        <time>2015-06-20T07:15:30.000Z</time>
      </trkpt>
      <trkpt lat="45.8292" lon="4.81718">
        <ele>385.1</ele>
        <time>2015-06-20T07:15:39.000Z</time>
      </trkpt>
      <trkpt lat="45.8292" lon="4.81716">
        <ele>384.3</ele>
        <time>2015-06-20T07:15:40.000Z</time>
      </trkpt>
      <trkpt lat="45.82918" lon="4.81712">
        <ele>384.1</ele>
        <time>2015-06-20T07:15:42.000Z</time>
      </trkpt>
      <trkpt lat="45.82915" lon="4.81704">
        <ele>383.8</ele>
        <time>2015-06-20T07:15:46.000Z</time>
      </trkpt>
      <trkpt lat="45.82911" lon="4.81693">
        <ele>382.8</ele>
        <time>2015-06-20T07:15:51.000Z</time>
      </trkpt>
      <trkpt lat="45.82909" lon="4.81681">
        <ele>380.5</ele>
        <time>2015-06-20T07:15:56.000Z</time>
      </trkpt>
      <trkpt lat="45.82909" lon="4.81675">
        <ele>379.3</ele>
        <time>2015-06-20T07:15:58.000Z</time>
      </trkpt>
      <trkpt lat="45.82907" lon="4.8167">
        <ele>378.7</ele>
        <time>2015-06-20T07:16:00.000Z</time>
      </trkpt>
      <trkpt lat="45.82903" lon="4.81655">
        <ele>375.8</ele>
        <time>2015-06-20T07:16:05.000Z</time>
      </trkpt>
      <trkpt lat="45.82902" lon="4.81653">
        <ele>375.2</ele>
        <time>2015-06-20T07:16:06.000Z</time>
      </trkpt>
      <trkpt lat="45.82895" lon="4.81642">
        <ele>374.7</ele>
        <time>2015-06-20T07:16:11.000Z</time>
      </trkpt>
      <trkpt lat="45.82894" lon="4.81641">
        <ele>374.5</ele>
        <time>2015-06-20T07:16:12.000Z</time>
      </trkpt>
      <trkpt lat="45.82883" lon="4.81634">
        <ele>375.7</ele>
        <time>2015-06-20T07:16:18.000Z</time>
      </trkpt>
      <trkpt lat="45.8288" lon="4.81627">
        <ele>374</ele>
        <time>2015-06-20T07:16:22.000Z</time>
      </trkpt>
      <trkpt lat="45.82876" lon="4.81619">
        <ele>372.2</ele>
        <time>2015-06-20T07:16:27.000Z</time>
      </trkpt>
      <trkpt lat="45.82875" lon="4.81617">
        <ele>371.6</ele>
        <time>2015-06-20T07:16:28.000Z</time>
      </trkpt>
      <trkpt lat="45.82875" lon="4.81613">
        <ele>369.9</ele>
        <time>2015-06-20T07:16:30.000Z</time>
      </trkpt>
      <trkpt lat="45.82872" lon="4.81596">
        <ele>365.9</ele>
        <time>2015-06-20T07:16:37.000Z</time>
      </trkpt>
      <trkpt lat="45.82872" lon="4.81594">
        <ele>365.5</ele>
        <time>2015-06-20T07:16:38.000Z</time>
      </trkpt>
      <trkpt lat="45.82869" lon="4.81584">
        <ele>363.6</ele>
        <time>2015-06-20T07:16:42.000Z</time>
      </trkpt>
      <trkpt lat="45.82869" lon="4.81582">
        <ele>363.2</ele>
        <time>2015-06-20T07:16:43.000Z</time>
      </trkpt>
      <trkpt lat="45.82866" lon="4.81575">
        <ele>362.9</ele>
        <time>2015-06-20T07:16:45.000Z</time>
      </trkpt>
      <trkpt lat="45.82863" lon="4.8156">
        <ele>361.3</ele>
        <time>2015-06-20T07:16:50.000Z</time>
      </trkpt>
      <trkpt lat="45.82862" lon="4.81553">
        <ele>360.6</ele>
        <time>2015-06-20T07:16:53.000Z</time>
      </trkpt>
      <trkpt lat="45.82863" lon="4.81538">
        <ele>359</ele>
        <time>2015-06-20T07:17:00.000Z</time>
      </trkpt>
      <trkpt lat="45.82865" lon="4.81531">
        <ele>357.9</ele>
        <time>2015-06-20T07:17:04.000Z</time>
      </trkpt>
      <trkpt lat="45.82865" lon="4.81525">
        <ele>358</ele>
        <time>2015-06-20T07:17:07.000Z</time>
      </trkpt>
      <trkpt lat="45.82867" lon="4.8151">
        <ele>357.5</ele>
        <time>2015-06-20T07:17:14.000Z</time>
      </trkpt>
      <trkpt lat="45.82868" lon="4.81508">
        <ele>357.4</ele>
        <time>2015-06-20T07:17:15.000Z</time>
      </trkpt>
      <trkpt lat="45.8287" lon="4.81498">
        <ele>357</ele>
        <time>2015-06-20T07:17:20.000Z</time>
      </trkpt>
      <trkpt lat="45.82877" lon="4.81488">
        <ele>355.2</ele>
        <time>2015-06-20T07:17:26.000Z</time>
      </trkpt>
      <trkpt lat="45.82884" lon="4.81482">
        <ele>352.6</ele>
        <time>2015-06-20T07:17:30.000Z</time>
      </trkpt>
      <trkpt lat="45.8289" lon="4.81476">
        <ele>350.6</ele>
        <time>2015-06-20T07:17:34.000Z</time>
      </trkpt>
      <trkpt lat="45.82891" lon="4.81475">
        <ele>350.3</ele>
        <time>2015-06-20T07:17:35.000Z</time>
      </trkpt>
      <trkpt lat="45.82893" lon="4.81472">
        <ele>349.6</ele>
        <time>2015-06-20T07:17:37.000Z</time>
      </trkpt>
      <trkpt lat="45.82903" lon="4.81465">
        <ele>346.5</ele>
        <time>2015-06-20T07:17:43.000Z</time>
      </trkpt>
      <trkpt lat="45.82904" lon="4.81464">
        <ele>346.1</ele>
        <time>2015-06-20T07:17:44.000Z</time>
      </trkpt>
      <trkpt lat="45.82912" lon="4.81457">
        <ele>342.6</ele>
        <time>2015-06-20T07:17:49.000Z</time>
      </trkpt>
      <trkpt lat="45.82914" lon="4.81452">
        <ele>341</ele>
        <time>2015-06-20T07:17:52.000Z</time>
      </trkpt>
      <trkpt lat="45.82916" lon="4.8144">
        <ele>339.6</ele>
        <time>2015-06-20T07:17:58.000Z</time>
      </trkpt>
      <trkpt lat="45.82918" lon="4.81432">
        <ele>338.4</ele>
        <time>2015-06-20T07:18:04.000Z</time>
      </trkpt>
      <trkpt lat="45.82919" lon="4.8143">
        <ele>338.1</ele>
        <time>2015-06-20T07:18:06.000Z</time>
      </trkpt>
      <trkpt lat="45.82919" lon="4.81425">
        <ele>338.1</ele>
        <time>2015-06-20T07:18:10.000Z</time>
      </trkpt>
      <trkpt lat="45.8292" lon="4.81422">
        <ele>337.7</ele>
        <time>2015-06-20T07:18:12.000Z</time>
      </trkpt>
      <trkpt lat="45.82927" lon="4.81418">
        <ele>334.9</ele>
        <time>2015-06-20T07:18:17.000Z</time>
      </trkpt>
      <trkpt lat="45.82929" lon="4.81414">
        <ele>334.4</ele>
        <time>2015-06-20T07:18:20.000Z</time>
      </trkpt>
      <trkpt lat="45.82931" lon="4.81412">
        <ele>333.6</ele>
        <time>2015-06-20T07:18:22.000Z</time>
      </trkpt>
      <trkpt lat="45.82938" lon="4.81407">
        <ele>330.6</ele>
        <time>2015-06-20T07:18:27.000Z</time>
      </trkpt>
      <trkpt lat="45.82941" lon="4.81404">
        <ele>329</ele>
        <time>2015-06-20T07:18:29.000Z</time>
      </trkpt>
      <trkpt lat="45.82945" lon="4.814">
        <ele>327.2</ele>
        <time>2015-06-20T07:18:33.000Z</time>
      </trkpt>
      <trkpt lat="45.82948" lon="4.81394">
        <ele>326.3</ele>
        <time>2015-06-20T07:18:37.000Z</time>
      </trkpt>
      <trkpt lat="45.82959" lon="4.81388">
        <ele>323.3</ele>
        <time>2015-06-20T07:18:42.000Z</time>
      </trkpt>
      <trkpt lat="45.82962" lon="4.81385">
        <ele>322.6</ele>
        <time>2015-06-20T07:18:44.000Z</time>
      </trkpt>
      <trkpt lat="45.82966" lon="4.8138">
        <ele>321.6</ele>
        <time>2015-06-20T07:18:47.000Z</time>
      </trkpt>
      <trkpt lat="45.82972" lon="4.8137">
        <ele>319.5</ele>
        <time>2015-06-20T07:18:53.000Z</time>
      </trkpt>
      <trkpt lat="45.82973" lon="4.81368">
        <ele>319.2</ele>
        <time>2015-06-20T07:18:54.000Z</time>
      </trkpt>
      <trkpt lat="45.82973" lon="4.81365">
        <ele>319</ele>
        <time>2015-06-20T07:18:56.000Z</time>
      </trkpt>
      <trkpt lat="45.82974" lon="4.81357">
        <ele>319</ele>
        <time>2015-06-20T07:19:00.000Z</time>
      </trkpt>
      <trkpt lat="45.82976" lon="4.8135">
        <ele>318.9</ele>
        <time>2015-06-20T07:19:04.000Z</time>
      </trkpt>
      <trkpt lat="45.8298" lon="4.81339">
        <ele>318.5</ele>
        <time>2015-06-20T07:19:09.000Z</time>
      </trkpt>
      <trkpt lat="45.82982" lon="4.81336">
        <ele>318</ele>
        <time>2015-06-20T07:19:11.000Z</time>
      </trkpt>
      <trkpt lat="45.82989" lon="4.81329">
        <ele>316.5</ele>
        <time>2015-06-20T07:19:16.000Z</time>
      </trkpt>
      <trkpt lat="45.8299" lon="4.81328">
        <ele>316.2</ele>
        <time>2015-06-20T07:19:17.000Z</time>
      </trkpt>
      <trkpt lat="45.82994" lon="4.81325">
        <ele>315.3</ele>
        <time>2015-06-20T07:19:20.000Z</time>
      </trkpt>
      <trkpt lat="45.82999" lon="4.81319">
        <ele>313.8</ele>
        <time>2015-06-20T07:19:25.000Z</time>
      </trkpt>
      <trkpt lat="45.83001" lon="4.8131">
        <ele>313.7</ele>
        <time>2015-06-20T07:19:29.000Z</time>
      </trkpt>
      <trkpt lat="45.83005" lon="4.81306">
        <ele>313.5</ele>
        <time>2015-06-20T07:19:32.000Z</time>
      </trkpt>
      <trkpt lat="45.83007" lon="4.81305">
        <ele>313.4</ele>
        <time>2015-06-20T07:19:37.000Z</time>
      </trkpt>
      <trkpt lat="45.83008" lon="4.81306">
        <ele>313.1</ele>
        <time>2015-06-20T07:19:38.000Z</time>
      </trkpt>
      <trkpt lat="45.83015" lon="4.81312">
        <ele>312</ele>
        <time>2015-06-20T07:19:43.000Z</time>
      </trkpt>
      <trkpt lat="45.8302" lon="4.81318">
        <ele>311.1</ele>
        <time>2015-06-20T07:19:47.000Z</time>
      </trkpt>
      <trkpt lat="45.83025" lon="4.81325">
        <ele>309.9</ele>
        <time>2015-06-20T07:19:52.000Z</time>
      </trkpt>
      <trkpt lat="45.83032" lon="4.81329">
        <ele>309.3</ele>
        <time>2015-06-20T07:19:56.000Z</time>
      </trkpt>
      <trkpt lat="45.83033" lon="4.81331">
        <ele>309.1</ele>
        <time>2015-06-20T07:19:57.000Z</time>
      </trkpt>
      <trkpt lat="45.83037" lon="4.81334">
        <ele>308.7</ele>
        <time>2015-06-20T07:19:59.000Z</time>
      </trkpt>
      <trkpt lat="45.83044" lon="4.8134">
        <ele>308.1</ele>
        <time>2015-06-20T07:20:03.000Z</time>
      </trkpt>
      <trkpt lat="45.83045" lon="4.81342">
        <ele>307.9</ele>
        <time>2015-06-20T07:20:04.000Z</time>
      </trkpt>
      <trkpt lat="45.83053" lon="4.81349">
        <ele>306.6</ele>
        <time>2015-06-20T07:20:08.000Z</time>
      </trkpt>
      <trkpt lat="45.83063" lon="4.81363">
        <ele>304.7</ele>
        <time>2015-06-20T07:20:14.000Z</time>
      </trkpt>
      <trkpt lat="45.83065" lon="4.81367">
        <ele>304.5</ele>
        <time>2015-06-20T07:20:17.000Z</time>
      </trkpt>
      <trkpt lat="45.83068" lon="4.81378">
        <ele>303.6</ele>
        <time>2015-06-20T07:20:22.000Z</time>
      </trkpt>
      <trkpt lat="45.8307" lon="4.81385">
        <ele>302.7</ele>
        <time>2015-06-20T07:20:26.000Z</time>
      </trkpt>
      <trkpt lat="45.83071" lon="4.81396">
        <ele>301.9</ele>
        <time>2015-06-20T07:20:31.000Z</time>
      </trkpt>
      <trkpt lat="45.83071" lon="4.81398">
        <ele>301.9</ele>
        <time>2015-06-20T07:20:32.000Z</time>
      </trkpt>
      <trkpt lat="45.83071" lon="4.81399">
        <ele>301.9</ele>
        <time>2015-06-20T07:20:33.000Z</time>
      </trkpt>
      <trkpt lat="45.83072" lon="4.81401">
        <ele>301.7</ele>
        <time>2015-06-20T07:20:35.000Z</time>
      </trkpt>
      <trkpt lat="45.83071" lon="4.81408">
        <ele>301.7</ele>
        <time>2015-06-20T07:20:39.000Z</time>
      </trkpt>
      <trkpt lat="45.83075" lon="4.81414">
        <ele>300.5</ele>
        <time>2015-06-20T07:20:43.000Z</time>
      </trkpt>
      <trkpt lat="45.83077" lon="4.81418">
        <ele>299.9</ele>
        <time>2015-06-20T07:20:45.000Z</time>
      </trkpt>
      <trkpt lat="45.83078" lon="4.81426">
        <ele>299.5</ele>
        <time>2015-06-20T07:20:49.000Z</time>
      </trkpt>
      <trkpt lat="45.83084" lon="4.81433">
        <ele>297.9</ele>
        <time>2015-06-20T07:20:54.000Z</time>
      </trkpt>
      <trkpt lat="45.83085" lon="4.81434">
        <ele>297.6</ele>
        <time>2015-06-20T07:20:55.000Z</time>
      </trkpt>
      <trkpt lat="45.83086" lon="4.81435">
        <ele>297.3</ele>
        <time>2015-06-20T07:20:56.000Z</time>
      </trkpt>
      <trkpt lat="45.83091" lon="4.81437">
        <ele>296.1</ele>
        <time>2015-06-20T07:20:59.000Z</time>
      </trkpt>
      <trkpt lat="45.83097" lon="4.81443">
        <ele>294.2</ele>
        <time>2015-06-20T07:21:03.000Z</time>
      </trkpt>
      <trkpt lat="45.83101" lon="4.81449">
        <ele>293.2</ele>
        <time>2015-06-20T07:21:08.000Z</time>
      </trkpt>
      <trkpt lat="45.8311" lon="4.81456">
        <ele>291.3</ele>
        <time>2015-06-20T07:21:12.000Z</time>
      </trkpt>
      <trkpt lat="45.83111" lon="4.81459">
        <ele>291.1</ele>
        <time>2015-06-20T07:21:13.000Z</time>
      </trkpt>
      <trkpt lat="45.83119" lon="4.8147">
        <ele>290.4</ele>
        <time>2015-06-20T07:21:18.000Z</time>
      </trkpt>
      <trkpt lat="45.83123" lon="4.81478">
        <ele>289.3</ele>
        <time>2015-06-20T07:21:21.000Z</time>
      </trkpt>
      <trkpt lat="45.83129" lon="4.81489">
        <ele>287.1</ele>
        <time>2015-06-20T07:21:26.000Z</time>
      </trkpt>
      <trkpt lat="45.83131" lon="4.81491">
        <ele>286.5</ele>
        <time>2015-06-20T07:21:27.000Z</time>
      </trkpt>
      <trkpt lat="45.83136" lon="4.81506">
        <ele>283.8</ele>
        <time>2015-06-20T07:21:33.000Z</time>
      </trkpt>
      <trkpt lat="45.83147" lon="4.81524">
        <ele>281.4</ele>
        <time>2015-06-20T07:21:41.000Z</time>
      </trkpt>
      <trkpt lat="45.83155" lon="4.81539">
        <ele>279.6</ele>
        <time>2015-06-20T07:21:47.000Z</time>
      </trkpt>
      <trkpt lat="45.83161" lon="4.81556">
        <ele>277.3</ele>
        <time>2015-06-20T07:21:53.000Z</time>
      </trkpt>
      <trkpt lat="45.83163" lon="4.81573">
        <ele>274.9</ele>
        <time>2015-06-20T07:21:59.000Z</time>
      </trkpt>
      <trkpt lat="45.83168" lon="4.81587">
        <ele>272.6</ele>
        <time>2015-06-20T07:22:05.000Z</time>
      </trkpt>
      <trkpt lat="45.83169" lon="4.81588">
        <ele>272.5</ele>
        <time>2015-06-20T07:22:06.000Z</time>
      </trkpt>
      <trkpt lat="45.83173" lon="4.81597">
        <ele>271.5</ele>
        <time>2015-06-20T07:22:10.000Z</time>
      </trkpt>
      <trkpt lat="45.83176" lon="4.81608">
        <ele>270.4</ele>
        <time>2015-06-20T07:22:14.000Z</time>
      </trkpt>
      <trkpt lat="45.83182" lon="4.81617">
        <ele>269.5</ele>
        <time>2015-06-20T07:22:18.000Z</time>
      </trkpt>
      <trkpt lat="45.83193" lon="4.81623">
        <ele>269.1</ele>
        <time>2015-06-20T07:22:23.000Z</time>
      </trkpt>
      <trkpt lat="45.83198" lon="4.81619">
        <ele>270.4</ele>
        <time>2015-06-20T07:22:27.000Z</time>
      </trkpt>
      <trkpt lat="45.83202" lon="4.81618">
        <ele>271.6</ele>
        <time>2015-06-20T07:22:29.000Z</time>
      </trkpt>
      <trkpt lat="45.83213" lon="4.81622">
        <ele>274.1</ele>
        <time>2015-06-20T07:22:35.000Z</time>
      </trkpt>
      <trkpt lat="45.83217" lon="4.81629">
        <ele>274</ele>
        <time>2015-06-20T07:22:38.000Z</time>
      </trkpt>
      <trkpt lat="45.83221" lon="4.81633">
        <ele>274.1</ele>
        <time>2015-06-20T07:22:40.000Z</time>
      </trkpt>
      <trkpt lat="45.83226" lon="4.81642">
        <ele>273.9</ele>
        <time>2015-06-20T07:22:44.000Z</time>
      </trkpt>
      <trkpt lat="45.83228" lon="4.81649">
        <ele>273.6</ele>
        <time>2015-06-20T07:22:47.000Z</time>
      </trkpt>
      <trkpt lat="45.8323" lon="4.81653">
        <ele>273.7</ele>
        <time>2015-06-20T07:22:49.000Z</time>
      </trkpt>
      <trkpt lat="45.83235" lon="4.81659">
        <ele>274.4</ele>
        <time>2015-06-20T07:22:52.000Z</time>
      </trkpt>
      <trkpt lat="45.83242" lon="4.81669">
        <ele>274.7</ele>
        <time>2015-06-20T07:22:57.000Z</time>
      </trkpt>
      <trkpt lat="45.83248" lon="4.81676">
        <ele>275.5</ele>
        <time>2015-06-20T07:23:01.000Z</time>
      </trkpt>
      <trkpt lat="45.83255" lon="4.81687">
        <ele>276.1</ele>
        <time>2015-06-20T07:23:07.000Z</time>
      </trkpt>
      <trkpt lat="45.83264" lon="4.81697">
        <ele>277.2</ele>
        <time>2015-06-20T07:23:13.000Z</time>
      </trkpt>
      <trkpt lat="45.83265" lon="4.81698">
        <ele>277.2</ele>
        <time>2015-06-20T07:23:14.000Z</time>
      </trkpt>
      <trkpt lat="45.83269" lon="4.81705">
        <ele>277.4</ele>
        <time>2015-06-20T07:23:18.000Z</time>
      </trkpt>
      <trkpt lat="45.83272" lon="4.81709">
        <ele>277.3</ele>
        <time>2015-06-20T07:23:20.000Z</time>
      </trkpt>
      <trkpt lat="45.83275" lon="4.81713">
        <ele>277.5</ele>
        <time>2015-06-20T07:23:22.000Z</time>
      </trkpt>
      <trkpt lat="45.83282" lon="4.81718">
        <ele>278.6</ele>
        <time>2015-06-20T07:23:26.000Z</time>
      </trkpt>
      <trkpt lat="45.83284" lon="4.81718">
        <ele>278.9</ele>
        <time>2015-06-20T07:23:27.000Z</time>
      </trkpt>
      <trkpt lat="45.83299" lon="4.81726">
        <ele>280.9</ele>
        <time>2015-06-20T07:23:34.000Z</time>
      </trkpt>
      <trkpt lat="45.83311" lon="4.81732">
        <ele>282.5</ele>
        <time>2015-06-20T07:23:39.000Z</time>
      </trkpt>
      <trkpt lat="45.83324" lon="4.81737">
        <ele>284.7</ele>
        <time>2015-06-20T07:23:45.000Z</time>
      </trkpt>
      <trkpt lat="45.83337" lon="4.81743">
        <ele>286.2</ele>
        <time>2015-06-20T07:23:51.000Z</time>
      </trkpt>
      <trkpt lat="45.83353" lon="4.81749">
        <ele>286.9</ele>
        <time>2015-06-20T07:23:58.000Z</time>
      </trkpt>
      <trkpt lat="45.83364" lon="4.81757">
        <ele>287</ele>
        <time>2015-06-20T07:24:05.000Z</time>
      </trkpt>
      <trkpt lat="45.83368" lon="4.81762">
        <ele>286.3</ele>
        <time>2015-06-20T07:24:11.000Z</time>
      </trkpt>
      <trkpt lat="45.8337" lon="4.81761">
        <ele>286.7</ele>
        <time>2015-06-20T07:24:15.000Z</time>
      </trkpt>
      <trkpt lat="45.8337" lon="4.81761">
        <ele>286.5</ele>
        <time>2015-06-20T07:24:20.000Z</time>
      </trkpt>
      <trkpt lat="45.83368" lon="4.81765">
        <ele>285.7</ele>
        <time>2015-06-20T07:24:49.000Z</time>
      </trkpt>
      <trkpt lat="45.83368" lon="4.81771">
        <ele>284.6</ele>
        <time>2015-06-20T07:25:45.000Z</time>
      </trkpt>
      <trkpt lat="45.83371" lon="4.81776">
        <ele>283.7</ele>
        <time>2015-06-20T07:25:49.000Z</time>
      </trkpt>
      <trkpt lat="45.83375" lon="4.81782">
        <ele>282.9</ele>
        <time>2015-06-20T07:25:52.000Z</time>
      </trkpt>
      <trkpt lat="45.83378" lon="4.81788">
        <ele>282</ele>
        <time>2015-06-20T07:25:55.000Z</time>
      </trkpt>
      <trkpt lat="45.83383" lon="4.81798">
        <ele>280.7</ele>
        <time>2015-06-20T07:26:00.000Z</time>
      </trkpt>
      <trkpt lat="45.8339" lon="4.81812">
        <ele>278.6</ele>
        <time>2015-06-20T07:26:06.000Z</time>
      </trkpt>
      <trkpt lat="45.83391" lon="4.81815">
        <ele>278</ele>
        <time>2015-06-20T07:26:07.000Z</time>
      </trkpt>
      <trkpt lat="45.83401" lon="4.81824">
        <ele>276.3</ele>
        <time>2015-06-20T07:26:12.000Z</time>
      </trkpt>
      <trkpt lat="45.83415" lon="4.81827">
        <ele>276.1</ele>
        <time>2015-06-20T07:26:18.000Z</time>
      </trkpt>
      <trkpt lat="45.83426" lon="4.81829">
        <ele>275.1</ele>
        <time>2015-06-20T07:26:23.000Z</time>
      </trkpt>
      <trkpt lat="45.83437" lon="4.81833">
        <ele>273.6</ele>
        <time>2015-06-20T07:26:28.000Z</time>
      </trkpt>
      <trkpt lat="45.83453" lon="4.81837">
        <ele>272.1</ele>
        <time>2015-06-20T07:26:34.000Z</time>
      </trkpt>
      <trkpt lat="45.83469" lon="4.81843">
        <ele>270.5</ele>
        <time>2015-06-20T07:26:40.000Z</time>
      </trkpt>
      <trkpt lat="45.83486" lon="4.8185">
        <ele>268.6</ele>
        <time>2015-06-20T07:26:47.000Z</time>
      </trkpt>
      <trkpt lat="45.83501" lon="4.81854">
        <ele>267.2</ele>
        <time>2015-06-20T07:26:53.000Z</time>
      </trkpt>
      <trkpt lat="45.83516" lon="4.81857">
        <ele>267</ele>
        <time>2015-06-20T07:26:59.000Z</time>
      </trkpt>
      <trkpt lat="45.83519" lon="4.81858">
        <ele>266.8</ele>
        <time>2015-06-20T07:27:00.000Z</time>
      </trkpt>
      <trkpt lat="45.83529" lon="4.81862">
        <ele>265.8</ele>
        <time>2015-06-20T07:27:05.000Z</time>
      </trkpt>
      <trkpt lat="45.83541" lon="4.81865">
        <ele>265.5</ele>
        <time>2015-06-20T07:27:10.000Z</time>
      </trkpt>
      <trkpt lat="45.83552" lon="4.81867">
        <ele>265.3</ele>
        <time>2015-06-20T07:27:14.000Z</time>
      </trkpt>
      <trkpt lat="45.83565" lon="4.81868">
        <ele>265</ele>
        <time>2015-06-20T07:27:19.000Z</time>
      </trkpt>
      <trkpt lat="45.83578" lon="4.81869">
        <ele>264.6</ele>
        <time>2015-06-20T07:27:24.000Z</time>
      </trkpt>
      <trkpt lat="45.83594" lon="4.81872">
        <ele>263.6</ele>
        <time>2015-06-20T07:27:30.000Z</time>
      </trkpt>
      <trkpt lat="45.83606" lon="4.81875">
        <ele>262.7</ele>
        <time>2015-06-20T07:27:35.000Z</time>
      </trkpt>
      <trkpt lat="45.83614" lon="4.81878">
        <ele>261.9</ele>
        <time>2015-06-20T07:27:39.000Z</time>
      </trkpt>
      <trkpt lat="45.83619" lon="4.81879">
        <ele>261.7</ele>
        <time>2015-06-20T07:27:44.000Z</time>
      </trkpt>
      <trkpt lat="45.8363" lon="4.81886">
        <ele>260.4</ele>
        <time>2015-06-20T07:27:49.000Z</time>
      </trkpt>
      <trkpt lat="45.8364" lon="4.81896">
        <ele>258.5</ele>
        <time>2015-06-20T07:27:54.000Z</time>
      </trkpt>
      <trkpt lat="45.83653" lon="4.81905">
        <ele>256.3</ele>
        <time>2015-06-20T07:27:59.000Z</time>
      </trkpt>
      <trkpt lat="45.83663" lon="4.81914">
        <ele>254.4</ele>
        <time>2015-06-20T07:28:04.000Z</time>
      </trkpt>
      <trkpt lat="45.83675" lon="4.81926">
        <ele>251.8</ele>
        <time>2015-06-20T07:28:10.000Z</time>
      </trkpt>
      <trkpt lat="45.83676" lon="4.81928">
        <ele>251.4</ele>
        <time>2015-06-20T07:28:11.000Z</time>
      </trkpt>
      <trkpt lat="45.83687" lon="4.81936">
        <ele>249</ele>
        <time>2015-06-20T07:28:17.000Z</time>
      </trkpt>
      <trkpt lat="45.83689" lon="4.81936">
        <ele>248.8</ele>
        <time>2015-06-20T07:28:18.000Z</time>
      </trkpt>
      <trkpt lat="45.837" lon="4.81937">
        <ele>247</ele>
        <time>2015-06-20T07:28:23.000Z</time>
      </trkpt>
      <trkpt lat="45.83711" lon="4.81938">
        <ele>245</ele>
        <time>2015-06-20T07:28:28.000Z</time>
      </trkpt>
      <trkpt lat="45.83722" lon="4.81939">
        <ele>242.8</ele>
        <time>2015-06-20T07:28:33.000Z</time>
      </trkpt>
      <trkpt lat="45.83738" lon="4.81942">
        <ele>240.1</ele>
        <time>2015-06-20T07:28:40.000Z</time>
      </trkpt>
      <trkpt lat="45.83749" lon="4.81943">
        <ele>238.3</ele>
        <time>2015-06-20T07:28:45.000Z</time>
      </trkpt>
      <trkpt lat="45.83757" lon="4.81948">
        <ele>236.9</ele>
        <time>2015-06-20T07:28:49.000Z</time>
      </trkpt>
      <trkpt lat="45.83766" lon="4.81969">
        <ele>234</ele>
        <time>2015-06-20T07:28:56.000Z</time>
      </trkpt>
      <trkpt lat="45.8377" lon="4.81981">
        <ele>232.3</ele>
        <time>2015-06-20T07:29:01.000Z</time>
      </trkpt>
      <trkpt lat="45.83772" lon="4.81986">
        <ele>231.6</ele>
        <time>2015-06-20T07:29:03.000Z</time>
      </trkpt>
      <trkpt lat="45.83776" lon="4.81999">
        <ele>229.4</ele>
        <time>2015-06-20T07:29:08.000Z</time>
      </trkpt>
      <trkpt lat="45.8378" lon="4.82014">
        <ele>227.8</ele>
        <time>2015-06-20T07:29:13.000Z</time>
      </trkpt>
      <trkpt lat="45.83781" lon="4.82017">
        <ele>227.5</ele>
        <time>2015-06-20T07:29:14.000Z</time>
      </trkpt>
      <trkpt lat="45.83787" lon="4.82036">
        <ele>225.7</ele>
        <time>2015-06-20T07:29:20.000Z</time>
      </trkpt>
      <trkpt lat="45.83795" lon="4.82047">
        <ele>224</ele>
        <time>2015-06-20T07:29:25.000Z</time>
      </trkpt>
      <trkpt lat="45.83809" lon="4.82051">
        <ele>222.3</ele>
        <time>2015-06-20T07:29:31.000Z</time>
      </trkpt>
      <trkpt lat="45.83828" lon="4.82053">
        <ele>221.4</ele>
        <time>2015-06-20T07:29:38.000Z</time>
      </trkpt>
      <trkpt lat="45.83842" lon="4.82052">
        <ele>220.6</ele>
        <time>2015-06-20T07:29:44.000Z</time>
      </trkpt>
      <trkpt lat="45.83852" lon="4.8205">
        <ele>220</ele>
        <time>2015-06-20T07:29:49.000Z</time>
      </trkpt>
      <trkpt lat="45.83862" lon="4.82051">
        <ele>219.4</ele>
        <time>2015-06-20T07:29:53.000Z</time>
      </trkpt>
      <trkpt lat="45.83863" lon="4.82051">
        <ele>219.5</ele>
        <time>2015-06-20T07:29:54.000Z</time>
      </trkpt>
      <trkpt lat="45.83866" lon="4.82049">
        <ele>219.9</ele>
        <time>2015-06-20T07:29:58.000Z</time>
      </trkpt>
      <trkpt lat="45.83868" lon="4.82037">
        <ele>220.9</ele>
        <time>2015-06-20T07:30:03.000Z</time>
      </trkpt>
      <trkpt lat="45.83867" lon="4.82028">
        <ele>221.6</ele>
        <time>2015-06-20T07:30:07.000Z</time>
      </trkpt>
      <trkpt lat="45.83866" lon="4.82006">
        <ele>223</ele>
        <time>2015-06-20T07:30:16.000Z</time>
      </trkpt>
      <trkpt lat="45.83865" lon="4.81994">
        <ele>223.7</ele>
        <time>2015-06-20T07:30:20.000Z</time>
      </trkpt>
      <trkpt lat="45.83865" lon="4.81988">
        <ele>224.1</ele>
        <time>2015-06-20T07:30:22.000Z</time>
      </trkpt>
      <trkpt lat="45.83861" lon="4.81976">
        <ele>224.7</ele>
        <time>2015-06-20T07:30:27.000Z</time>
      </trkpt>
      <trkpt lat="45.83861" lon="4.81966">
        <ele>225.5</ele>
        <time>2015-06-20T07:30:32.000Z</time>
      </trkpt>
      <trkpt lat="45.83861" lon="4.81955">
        <ele>226.3</ele>
        <time>2015-06-20T07:30:37.000Z</time>
      </trkpt>
      <trkpt lat="45.83861" lon="4.81953">
        <ele>226.4</ele>
        <time>2015-06-20T07:30:38.000Z</time>
      </trkpt>
      <trkpt lat="45.83863" lon="4.81948">
        <ele>226.9</ele>
        <time>2015-06-20T07:30:40.000Z</time>
      </trkpt>
      <trkpt lat="45.83862" lon="4.81936">
        <ele>228</ele>
        <time>2015-06-20T07:30:45.000Z</time>
      </trkpt>
      <trkpt lat="45.83862" lon="4.81934">
        <ele>228.2</ele>
        <time>2015-06-20T07:30:46.000Z</time>
      </trkpt>
      <trkpt lat="45.83862" lon="4.81923">
        <ele>229.4</ele>
        <time>2015-06-20T07:30:50.000Z</time>
      </trkpt>
      <trkpt lat="45.83863" lon="4.81907">
        <ele>230.7</ele>
        <time>2015-06-20T07:30:56.000Z</time>
      </trkpt>
      <trkpt lat="45.83864" lon="4.81896">
        <ele>231.6</ele>
        <time>2015-06-20T07:31:01.000Z</time>
      </trkpt>
      <trkpt lat="45.83865" lon="4.81886">
        <ele>232.4</ele>
        <time>2015-06-20T07:31:05.000Z</time>
      </trkpt>
      <trkpt lat="45.83863" lon="4.81879">
        <ele>232.8</ele>
        <time>2015-06-20T07:31:08.000Z</time>
      </trkpt>
      <trkpt lat="45.83861" lon="4.81872">
        <ele>233.2</ele>
        <time>2015-06-20T07:31:11.000Z</time>
      </trkpt>
      <trkpt lat="45.83857" lon="4.81863">
        <ele>234.3</ele>
        <time>2015-06-20T07:31:15.000Z</time>
      </trkpt>
      <trkpt lat="45.83854" lon="4.81855">
        <ele>235.7</ele>
        <time>2015-06-20T07:31:19.000Z</time>
      </trkpt>
      <trkpt lat="45.83851" lon="4.81846">
        <ele>237.1</ele>
        <time>2015-06-20T07:31:24.000Z</time>
      </trkpt>
      <trkpt lat="45.83851" lon="4.81841">
        <ele>237.7</ele>
        <time>2015-06-20T07:31:26.000Z</time>
      </trkpt>
      <trkpt lat="45.83848" lon="4.81832">
        <ele>239</ele>
        <time>2015-06-20T07:31:31.000Z</time>
      </trkpt>
      <trkpt lat="45.83847" lon="4.8183">
        <ele>239.2</ele>
        <time>2015-06-20T07:31:32.000Z</time>
      </trkpt>
      <trkpt lat="45.83842" lon="4.8182">
        <ele>240.1</ele>
        <time>2015-06-20T07:31:37.000Z</time>
      </trkpt>
      <trkpt lat="45.83841" lon="4.81811">
        <ele>240.7</ele>
        <time>2015-06-20T07:31:41.000Z</time>
      </trkpt>
      <trkpt lat="45.83841" lon="4.81803">
        <ele>241.2</ele>
        <time>2015-06-20T07:31:45.000Z</time>
      </trkpt>
      <trkpt lat="45.83842" lon="4.81795">
        <ele>241.8</ele>
        <time>2015-06-20T07:31:49.000Z</time>
      </trkpt>
      <trkpt lat="45.83842" lon="4.81792">
        <ele>242</ele>
        <time>2015-06-20T07:31:50.000Z</time>
      </trkpt>
      <trkpt lat="45.83841" lon="4.8178">
        <ele>242.8</ele>
        <time>2015-06-20T07:31:55.000Z</time>
      </trkpt>
      <trkpt lat="45.8384" lon="4.81769">
        <ele>243.7</ele>
        <time>2015-06-20T07:32:00.000Z</time>
      </trkpt>
      <trkpt lat="45.83838" lon="4.81758">
        <ele>244.5</ele>
        <time>2015-06-20T07:32:06.000Z</time>
      </trkpt>
      <trkpt lat="45.83835" lon="4.81743">
        <ele>246.4</ele>
        <time>2015-06-20T07:32:13.000Z</time>
      </trkpt>
      <trkpt lat="45.83835" lon="4.81735">
        <ele>247.8</ele>
        <time>2015-06-20T07:32:17.000Z</time>
      </trkpt>
      <trkpt lat="45.83836" lon="4.81725">
        <ele>249.6</ele>
        <time>2015-06-20T07:32:22.000Z</time>
      </trkpt>
      <trkpt lat="45.83835" lon="4.81721">
        <ele>250.2</ele>
        <time>2015-06-20T07:32:24.000Z</time>
      </trkpt>
      <trkpt lat="45.8383" lon="4.81712">
        <ele>252</ele>
        <time>2015-06-20T07:32:30.000Z</time>
      </trkpt>
      <trkpt lat="45.83829" lon="4.81709">
        <ele>252.4</ele>
        <time>2015-06-20T07:32:31.000Z</time>
      </trkpt>
      <trkpt lat="45.83826" lon="4.81705">
        <ele>253</ele>
        <time>2015-06-20T07:32:33.000Z</time>
      </trkpt>
      <trkpt lat="45.83822" lon="4.81703">
        <ele>253.2</ele>
        <time>2015-06-20T07:32:35.000Z</time>
      </trkpt>
      <trkpt lat="45.83822" lon="4.81699">
        <ele>253.6</ele>
        <time>2015-06-20T07:32:37.000Z</time>
      </trkpt>
      <trkpt lat="45.83816" lon="4.81694">
        <ele>253.9</ele>
        <time>2015-06-20T07:32:41.000Z</time>
      </trkpt>
      <trkpt lat="45.83809" lon="4.81686">
        <ele>254</ele>
        <time>2015-06-20T07:32:47.000Z</time>
      </trkpt>
      <trkpt lat="45.83807" lon="4.81684">
        <ele>253.9</ele>
        <time>2015-06-20T07:32:49.000Z</time>
      </trkpt>
      <trkpt lat="45.83804" lon="4.81675">
        <ele>254.8</ele>
        <time>2015-06-20T07:32:55.000Z</time>
      </trkpt>
      <trkpt lat="45.83803" lon="4.81674">
        <ele>255.2</ele>
        <time>2015-06-20T07:32:56.000Z</time>
      </trkpt>
      <trkpt lat="45.83803" lon="4.81673">
        <ele>255.5</ele>
        <time>2015-06-20T07:32:57.000Z</time>
      </trkpt>
      <trkpt lat="45.83802" lon="4.81671">
        <ele>255.9</ele>
        <time>2015-06-20T07:32:58.000Z</time>
      </trkpt>
      <trkpt lat="45.83801" lon="4.81668">
        <ele>256.4</ele>
        <time>2015-06-20T07:33:00.000Z</time>
      </trkpt>
      <trkpt lat="45.83799" lon="4.81661">
        <ele>257.9</ele>
        <time>2015-06-20T07:33:04.000Z</time>
      </trkpt>
      <trkpt lat="45.83796" lon="4.81654">
        <ele>259.9</ele>
        <time>2015-06-20T07:33:09.000Z</time>
      </trkpt>
      <trkpt lat="45.83794" lon="4.81648">
        <ele>261</ele>
        <time>2015-06-20T07:33:13.000Z</time>
      </trkpt>
      <trkpt lat="45.83793" lon="4.81643">
        <ele>261.8</ele>
        <time>2015-06-20T07:33:16.000Z</time>
      </trkpt>
      <trkpt lat="45.83793" lon="4.81641">
        <ele>262.1</ele>
        <time>2015-06-20T07:33:18.000Z</time>
      </trkpt>
      <trkpt lat="45.83793" lon="4.81634">
        <ele>262.6</ele>
        <time>2015-06-20T07:33:22.000Z</time>
      </trkpt>
      <trkpt lat="45.83793" lon="4.81633">
        <ele>262.8</ele>
        <time>2015-06-20T07:33:23.000Z</time>
      </trkpt>
      <trkpt lat="45.83793" lon="4.81627">
        <ele>263.2</ele>
        <time>2015-06-20T07:33:27.000Z</time>
      </trkpt>
      <trkpt lat="45.83798" lon="4.81618">
        <ele>263.9</ele>
        <time>2015-06-20T07:33:32.000Z</time>
      </trkpt>
      <trkpt lat="45.83799" lon="4.81615">
        <ele>264.3</ele>
        <time>2015-06-20T07:33:33.000Z</time>
      </trkpt>
      <trkpt lat="45.838" lon="4.81613">
        <ele>264.6</ele>
        <time>2015-06-20T07:33:34.000Z</time>
      </trkpt>
      <trkpt lat="45.83799" lon="4.81609">
        <ele>265.1</ele>
        <time>2015-06-20T07:33:36.000Z</time>
      </trkpt>
      <trkpt lat="45.83799" lon="4.81604">
        <ele>265.9</ele>
        <time>2015-06-20T07:33:39.000Z</time>
      </trkpt>
      <trkpt lat="45.83799" lon="4.81595">
        <ele>267.4</ele>
        <time>2015-06-20T07:33:44.000Z</time>
      </trkpt>
      <trkpt lat="45.83798" lon="4.81593">
        <ele>267.7</ele>
        <time>2015-06-20T07:33:45.000Z</time>
      </trkpt>
      <trkpt lat="45.83798" lon="4.81589">
        <ele>268.3</ele>
        <time>2015-06-20T07:33:47.000Z</time>
      </trkpt>
      <trkpt lat="45.83797" lon="4.81585">
        <ele>268.8</ele>
        <time>2015-06-20T07:33:49.000Z</time>
      </trkpt>
      <trkpt lat="45.83795" lon="4.81574">
        <ele>270.1</ele>
        <time>2015-06-20T07:33:55.000Z</time>
      </trkpt>
      <trkpt lat="45.83791" lon="4.81568">
        <ele>270.3</ele>
        <time>2015-06-20T07:33:58.000Z</time>
      </trkpt>
      <trkpt lat="45.8379" lon="4.81567">
        <ele>270.4</ele>
        <time>2015-06-20T07:33:59.000Z</time>
      </trkpt>
      <trkpt lat="45.83789" lon="4.81564">
        <ele>270.6</ele>
        <time>2015-06-20T07:34:01.000Z</time>
      </trkpt>
      <trkpt lat="45.83788" lon="4.81555">
        <ele>271.6</ele>
        <time>2015-06-20T07:34:06.000Z</time>
      </trkpt>
      <trkpt lat="45.83787" lon="4.81547">
        <ele>272.6</ele>
        <time>2015-06-20T07:34:12.000Z</time>
      </trkpt>
      <trkpt lat="45.83788" lon="4.81544">
        <ele>273.3</ele>
        <time>2015-06-20T07:34:14.000Z</time>
      </trkpt>
      <trkpt lat="45.83788" lon="4.81537">
        <ele>274.4</ele>
        <time>2015-06-20T07:34:18.000Z</time>
      </trkpt>
      <trkpt lat="45.83788" lon="4.81531">
        <ele>275.3</ele>
        <time>2015-06-20T07:34:22.000Z</time>
      </trkpt>
      <trkpt lat="45.83788" lon="4.81526">
        <ele>276.1</ele>
        <time>2015-06-20T07:34:27.000Z</time>
      </trkpt>
      <trkpt lat="45.83786" lon="4.81519">
        <ele>276.8</ele>
        <time>2015-06-20T07:34:33.000Z</time>
      </trkpt>
      <trkpt lat="45.83786" lon="4.81517">
        <ele>277</ele>
        <time>2015-06-20T07:34:34.000Z</time>
      </trkpt>
      <trkpt lat="45.83787" lon="4.8151">
        <ele>278.4</ele>
        <time>2015-06-20T07:34:38.000Z</time>
      </trkpt>
      <trkpt lat="45.8379" lon="4.81502">
        <ele>280.2</ele>
        <time>2015-06-20T07:34:42.000Z</time>
      </trkpt>
      <trkpt lat="45.8379" lon="4.81494">
        <ele>281.7</ele>
        <time>2015-06-20T07:34:47.000Z</time>
      </trkpt>
      <trkpt lat="45.83789" lon="4.81492">
        <ele>281.9</ele>
        <time>2015-06-20T07:34:48.000Z</time>
      </trkpt>
      <trkpt lat="45.83787" lon="4.81487">
        <ele>282.6</ele>
        <time>2015-06-20T07:34:51.000Z</time>
      </trkpt>
      <trkpt lat="45.83785" lon="4.81484">
        <ele>282.9</ele>
        <time>2015-06-20T07:34:53.000Z</time>
      </trkpt>
      <trkpt lat="45.83787" lon="4.81473">
        <ele>285.1</ele>
        <time>2015-06-20T07:34:59.000Z</time>
      </trkpt>
      <trkpt lat="45.83787" lon="4.8147">
        <ele>285.7</ele>
        <time>2015-06-20T07:35:01.000Z</time>
      </trkpt>
      <trkpt lat="45.83786" lon="4.81464">
        <ele>286.5</ele>
        <time>2015-06-20T07:35:06.000Z</time>
      </trkpt>
      <trkpt lat="45.83785" lon="4.8146">
        <ele>287.1</ele>
        <time>2015-06-20T07:35:09.000Z</time>
      </trkpt>
      <trkpt lat="45.83784" lon="4.81452">
        <ele>288.2</ele>
        <time>2015-06-20T07:35:15.000Z</time>
      </trkpt>
      <trkpt lat="45.83785" lon="4.81445">
        <ele>289.4</ele>
        <time>2015-06-20T07:35:19.000Z</time>
      </trkpt>
      <trkpt lat="45.83784" lon="4.81443">
        <ele>289.7</ele>
        <time>2015-06-20T07:35:21.000Z</time>
      </trkpt>
      <trkpt lat="45.83786" lon="4.81436">
        <ele>291.2</ele>
        <time>2015-06-20T07:35:26.000Z</time>
      </trkpt>
      <trkpt lat="45.83786" lon="4.81433">
        <ele>291.6</ele>
        <time>2015-06-20T07:35:28.000Z</time>
      </trkpt>
      <trkpt lat="45.83785" lon="4.81427">
        <ele>292.3</ele>
        <time>2015-06-20T07:35:32.000Z</time>
      </trkpt>
      <trkpt lat="45.83784" lon="4.81421">
        <ele>293.1</ele>
        <time>2015-06-20T07:35:36.000Z</time>
      </trkpt>
      <trkpt lat="45.83786" lon="4.81411">
        <ele>295.2</ele>
        <time>2015-06-20T07:35:41.000Z</time>
      </trkpt>
      <trkpt lat="45.83786" lon="4.81409">
        <ele>295.3</ele>
        <time>2015-06-20T07:35:42.000Z</time>
      </trkpt>
      <trkpt lat="45.83785" lon="4.81408">
        <ele>295.4</ele>
        <time>2015-06-20T07:35:43.000Z</time>
      </trkpt>
      <trkpt lat="45.83785" lon="4.81399">
        <ele>296.7</ele>
        <time>2015-06-20T07:35:48.000Z</time>
      </trkpt>
      <trkpt lat="45.83785" lon="4.81398">
        <ele>296.9</ele>
        <time>2015-06-20T07:35:49.000Z</time>
      </trkpt>
      <trkpt lat="45.83784" lon="4.81393">
        <ele>297.6</ele>
        <time>2015-06-20T07:35:54.000Z</time>
      </trkpt>
      <trkpt lat="45.83783" lon="4.81392">
        <ele>297.7</ele>
        <time>2015-06-20T07:35:55.000Z</time>
      </trkpt>
      <trkpt lat="45.83781" lon="4.81384">
        <ele>298.9</ele>
        <time>2015-06-20T07:36:00.000Z</time>
      </trkpt>
      <trkpt lat="45.83778" lon="4.81374">
        <ele>300.2</ele>
        <time>2015-06-20T07:36:06.000Z</time>
      </trkpt>
      <trkpt lat="45.83777" lon="4.81373">
        <ele>300.5</ele>
        <time>2015-06-20T07:36:07.000Z</time>
      </trkpt>
      <trkpt lat="45.83777" lon="4.81371">
        <ele>301.1</ele>
        <time>2015-06-20T07:36:09.000Z</time>
      </trkpt>
      <trkpt lat="45.83777" lon="4.8137">
        <ele>301.3</ele>
        <time>2015-06-20T07:36:14.000Z</time>
      </trkpt>
      <trkpt lat="45.83773" lon="4.81361">
        <ele>303.9</ele>
        <time>2015-06-20T07:36:50.000Z</time>
      </trkpt>
      <trkpt lat="45.83772" lon="4.81358">
        <ele>304.7</ele>
        <time>2015-06-20T07:36:55.000Z</time>
      </trkpt>
      <trkpt lat="45.83771" lon="4.81353">
        <ele>305.8</ele>
        <time>2015-06-20T07:37:00.000Z</time>
      </trkpt>
      <trkpt lat="45.83769" lon="4.81349">
        <ele>306.9</ele>
        <time>2015-06-20T07:37:04.000Z</time>
      </trkpt>
      <trkpt lat="45.83769" lon="4.81342">
        <ele>308.3</ele>
        <time>2015-06-20T07:37:11.000Z</time>
      </trkpt>
      <trkpt lat="45.83768" lon="4.8134">
        <ele>308.7</ele>
        <time>2015-06-20T07:37:13.000Z</time>
      </trkpt>
      <trkpt lat="45.83765" lon="4.81336">
        <ele>309.9</ele>
        <time>2015-06-20T07:37:18.000Z</time>
      </trkpt>
      <trkpt lat="45.83764" lon="4.8133">
        <ele>311</ele>
        <time>2015-06-20T07:37:24.000Z</time>
      </trkpt>
      <trkpt lat="45.83763" lon="4.81323">
        <ele>312.3</ele>
        <time>2015-06-20T07:37:31.000Z</time>
      </trkpt>
      <trkpt lat="45.83764" lon="4.81319">
        <ele>312.9</ele>
        <time>2015-06-20T07:37:35.000Z</time>
      </trkpt>
      <trkpt lat="45.83766" lon="4.81314">
        <ele>313.4</ele>
        <time>2015-06-20T07:37:40.000Z</time>
      </trkpt>
      <trkpt lat="45.83767" lon="4.81308">
        <ele>314.4</ele>
        <time>2015-06-20T07:37:47.000Z</time>
      </trkpt>
      <trkpt lat="45.83768" lon="4.81305">
        <ele>314.8</ele>
        <time>2015-06-20T07:37:51.000Z</time>
      </trkpt>
      <trkpt lat="45.83767" lon="4.81301">
        <ele>315.3</ele>
        <time>2015-06-20T07:37:55.000Z</time>
      </trkpt>
      <trkpt lat="45.83767" lon="4.81296">
        <ele>315.9</ele>
        <time>2015-06-20T07:37:58.000Z</time>
      </trkpt>
      <trkpt lat="45.83768" lon="4.8129">
        <ele>316.5</ele>
        <time>2015-06-20T07:38:03.000Z</time>
      </trkpt>
      <trkpt lat="45.83769" lon="4.81283">
        <ele>317.3</ele>
        <time>2015-06-20T07:38:09.000Z</time>
      </trkpt>
      <trkpt lat="45.8377" lon="4.81282">
        <ele>317.4</ele>
        <time>2015-06-20T07:38:10.000Z</time>
      </trkpt>
      <trkpt lat="45.83773" lon="4.81277">
        <ele>318.1</ele>
        <time>2015-06-20T07:38:15.000Z</time>
      </trkpt>
      <trkpt lat="45.83773" lon="4.81274">
        <ele>318.6</ele>
        <time>2015-06-20T07:38:18.000Z</time>
      </trkpt>
      <trkpt lat="45.83775" lon="4.8127">
        <ele>319.3</ele>
        <time>2015-06-20T07:38:22.000Z</time>
      </trkpt>
      <trkpt lat="45.83777" lon="4.81263">
        <ele>320.2</ele>
        <time>2015-06-20T07:38:27.000Z</time>
      </trkpt>
      <trkpt lat="45.83775" lon="4.81256">
        <ele>321.4</ele>
        <time>2015-06-20T07:38:31.000Z</time>
      </trkpt>
      <trkpt lat="45.83775" lon="4.81242">
        <ele>323.6</ele>
        <time>2015-06-20T07:38:39.000Z</time>
      </trkpt>
      <trkpt lat="45.83775" lon="4.81241">
        <ele>323.9</ele>
        <time>2015-06-20T07:38:40.000Z</time>
      </trkpt>
      <trkpt lat="45.83775" lon="4.81236">
        <ele>324.6</ele>
        <time>2015-06-20T07:38:43.000Z</time>
      </trkpt>
      <trkpt lat="45.83773" lon="4.8123">
        <ele>325.8</ele>
        <time>2015-06-20T07:38:46.000Z</time>
      </trkpt>
      <trkpt lat="45.83775" lon="4.81221">
        <ele>326.7</ele>
        <time>2015-06-20T07:38:51.000Z</time>
      </trkpt>
      <trkpt lat="45.83779" lon="4.81214">
        <ele>327.4</ele>
        <time>2015-06-20T07:38:56.000Z</time>
      </trkpt>
      <trkpt lat="45.8378" lon="4.81212">
        <ele>327.8</ele>
        <time>2015-06-20T07:38:57.000Z</time>
      </trkpt>
      <trkpt lat="45.83779" lon="4.81205">
        <ele>328.3</ele>
        <time>2015-06-20T07:39:01.000Z</time>
      </trkpt>
      <trkpt lat="45.83778" lon="4.81195">
        <ele>329</ele>
        <time>2015-06-20T07:39:06.000Z</time>
      </trkpt>
      <trkpt lat="45.83778" lon="4.81184">
        <ele>330.7</ele>
        <time>2015-06-20T07:39:12.000Z</time>
      </trkpt>
      <trkpt lat="45.83778" lon="4.81178">
        <ele>331.6</ele>
        <time>2015-06-20T07:39:15.000Z</time>
      </trkpt>
      <trkpt lat="45.83776" lon="4.81169">
        <ele>333.4</ele>
        <time>2015-06-20T07:39:22.000Z</time>
      </trkpt>
      <trkpt lat="45.83775" lon="4.81165">
        <ele>334.1</ele>
        <time>2015-06-20T07:39:25.000Z</time>
      </trkpt>
      <trkpt lat="45.83774" lon="4.81162">
        <ele>335.2</ele>
        <time>2015-06-20T07:39:32.000Z</time>
      </trkpt>
      <trkpt lat="45.83777" lon="4.81161">
        <ele>334.3</ele>
        <time>2015-06-20T07:39:42.000Z</time>
      </trkpt>
      <trkpt lat="45.83776" lon="4.81159">
        <ele>334.9</ele>
        <time>2015-06-20T07:39:59.000Z</time>
      </trkpt>
      <trkpt lat="45.83775" lon="4.81156">
        <ele>335.8</ele>
        <time>2015-06-20T07:40:06.000Z</time>
      </trkpt>
      <trkpt lat="45.83773" lon="4.81151">
        <ele>337.7</ele>
        <time>2015-06-20T07:40:11.000Z</time>
      </trkpt>
      <trkpt lat="45.83772" lon="4.8115">
        <ele>338.2</ele>
        <time>2015-06-20T07:40:12.000Z</time>
      </trkpt>
      <trkpt lat="45.83771" lon="4.81147">
        <ele>339</ele>
        <time>2015-06-20T07:40:17.000Z</time>
      </trkpt>
      <trkpt lat="45.83771" lon="4.81147">
        <ele>339.2</ele>
        <time>2015-06-20T07:40:18.000Z</time>
      </trkpt>
      <trkpt lat="45.83771" lon="4.81142">
        <ele>339.7</ele>
        <time>2015-06-20T07:40:27.000Z</time>
      </trkpt>
      <trkpt lat="45.83775" lon="4.81159">
        <ele>335.4</ele>
        <time>2015-06-20T07:41:00.000Z</time>
      </trkpt>
      <trkpt lat="45.83773" lon="4.81172">
        <ele>333.8</ele>
        <time>2015-06-20T07:41:06.000Z</time>
      </trkpt>
      <trkpt lat="45.83772" lon="4.81179">
        <ele>333.1</ele>
        <time>2015-06-20T07:41:09.000Z</time>
      </trkpt>
      <trkpt lat="45.83773" lon="4.81182">
        <ele>332.4</ele>
        <time>2015-06-20T07:41:11.000Z</time>
      </trkpt>
      <trkpt lat="45.83772" lon="4.81186">
        <ele>332.1</ele>
        <time>2015-06-20T07:41:13.000Z</time>
      </trkpt>
      <trkpt lat="45.8377" lon="4.81192">
        <ele>331.7</ele>
        <time>2015-06-20T07:41:18.000Z</time>
      </trkpt>
      <trkpt lat="45.8377" lon="4.81193">
        <ele>331.5</ele>
        <time>2015-06-20T07:41:19.000Z</time>
      </trkpt>
      <trkpt lat="45.83769" lon="4.81194">
        <ele>331.5</ele>
        <time>2015-06-20T07:41:20.000Z</time>
      </trkpt>
      <trkpt lat="45.83766" lon="4.81196">
        <ele>332</ele>
        <time>2015-06-20T07:41:23.000Z</time>
      </trkpt>
      <trkpt lat="45.8376" lon="4.81201">
        <ele>333.2</ele>
        <time>2015-06-20T07:41:28.000Z</time>
      </trkpt>
      <trkpt lat="45.83751" lon="4.81204">
        <ele>335</ele>
        <time>2015-06-20T07:41:34.000Z</time>
      </trkpt>
      <trkpt lat="45.83746" lon="4.81209">
        <ele>335.5</ele>
        <time>2015-06-20T07:41:38.000Z</time>
      </trkpt>
      <trkpt lat="45.83741" lon="4.81211">
        <ele>336.2</ele>
        <time>2015-06-20T07:41:41.000Z</time>
      </trkpt>
      <trkpt lat="45.83736" lon="4.81214">
        <ele>337</ele>
        <time>2015-06-20T07:41:45.000Z</time>
      </trkpt>
      <trkpt lat="45.83733" lon="4.81216">
        <ele>337.6</ele>
        <time>2015-06-20T07:41:49.000Z</time>
      </trkpt>
      <trkpt lat="45.83729" lon="4.81217">
        <ele>338.3</ele>
        <time>2015-06-20T07:41:52.000Z</time>
      </trkpt>
      <trkpt lat="45.83723" lon="4.81221">
        <ele>339</ele>
        <time>2015-06-20T07:41:56.000Z</time>
      </trkpt>
      <trkpt lat="45.83717" lon="4.81225">
        <ele>340.1</ele>
        <time>2015-06-20T07:42:02.000Z</time>
      </trkpt>
      <trkpt lat="45.83708" lon="4.81228">
        <ele>342</ele>
        <time>2015-06-20T07:42:09.000Z</time>
      </trkpt>
      <trkpt lat="45.83707" lon="4.81229">
        <ele>342.3</ele>
        <time>2015-06-20T07:42:10.000Z</time>
      </trkpt>
      <trkpt lat="45.83701" lon="4.81232">
        <ele>343.6</ele>
        <time>2015-06-20T07:42:14.000Z</time>
      </trkpt>
      <trkpt lat="45.837" lon="4.81232">
        <ele>343.7</ele>
        <time>2015-06-20T07:42:15.000Z</time>
      </trkpt>
      <trkpt lat="45.83699" lon="4.81232">
        <ele>344</ele>
        <time>2015-06-20T07:42:16.000Z</time>
      </trkpt>
      <trkpt lat="45.83695" lon="4.81233">
        <ele>345</ele>
        <time>2015-06-20T07:42:19.000Z</time>
      </trkpt>
      <trkpt lat="45.83688" lon="4.81237">
        <ele>346.4</ele>
        <time>2015-06-20T07:42:24.000Z</time>
      </trkpt>
      <trkpt lat="45.83687" lon="4.81238">
        <ele>346.7</ele>
        <time>2015-06-20T07:42:25.000Z</time>
      </trkpt>
      <trkpt lat="45.83678" lon="4.81241">
        <ele>348.5</ele>
        <time>2015-06-20T07:42:31.000Z</time>
      </trkpt>
      <trkpt lat="45.83665" lon="4.81244">
        <ele>350.9</ele>
        <time>2015-06-20T07:42:38.000Z</time>
      </trkpt>
      <trkpt lat="45.83664" lon="4.81245">
        <ele>351</ele>
        <time>2015-06-20T07:42:39.000Z</time>
      </trkpt>
      <trkpt lat="45.8366" lon="4.81247">
        <ele>351.5</ele>
        <time>2015-06-20T07:42:42.000Z</time>
      </trkpt>
      <trkpt lat="45.83654" lon="4.81251">
        <ele>352.1</ele>
        <time>2015-06-20T07:42:46.000Z</time>
      </trkpt>
      <trkpt lat="45.8365" lon="4.81254">
        <ele>352.6</ele>
        <time>2015-06-20T07:42:53.000Z</time>
      </trkpt>
      <trkpt lat="45.8365" lon="4.81256">
        <ele>352.4</ele>
        <time>2015-06-20T07:42:55.000Z</time>
      </trkpt>
      <trkpt lat="45.83647" lon="4.81259">
        <ele>352.7</ele>
        <time>2015-06-20T07:43:01.000Z</time>
      </trkpt>
      <trkpt lat="45.83643" lon="4.81262">
        <ele>353.2</ele>
        <time>2015-06-20T07:43:06.000Z</time>
      </trkpt>
      <trkpt lat="45.83642" lon="4.81263">
        <ele>353.4</ele>
        <time>2015-06-20T07:43:07.000Z</time>
      </trkpt>
      <trkpt lat="45.83638" lon="4.81266">
        <ele>354</ele>
        <time>2015-06-20T07:43:11.000Z</time>
      </trkpt>
      <trkpt lat="45.8363" lon="4.81269">
        <ele>354.8</ele>
        <time>2015-06-20T07:43:17.000Z</time>
      </trkpt>
      <trkpt lat="45.83628" lon="4.8127">
        <ele>355</ele>
        <time>2015-06-20T07:43:18.000Z</time>
      </trkpt>
      <trkpt lat="45.83618" lon="4.81273">
        <ele>356.3</ele>
        <time>2015-06-20T07:43:24.000Z</time>
      </trkpt>
      <trkpt lat="45.83608" lon="4.81276">
        <ele>357.4</ele>
        <time>2015-06-20T07:43:29.000Z</time>
      </trkpt>
      <trkpt lat="45.836" lon="4.81282">
        <ele>358</ele>
        <time>2015-06-20T07:43:34.000Z</time>
      </trkpt>
      <trkpt lat="45.8359" lon="4.8129">
        <ele>358.1</ele>
        <time>2015-06-20T07:43:39.000Z</time>
      </trkpt>
      <trkpt lat="45.8358" lon="4.81297">
        <ele>358.1</ele>
        <time>2015-06-20T07:43:44.000Z</time>
      </trkpt>
      <trkpt lat="45.83578" lon="4.81299">
        <ele>358.1</ele>
        <time>2015-06-20T07:43:45.000Z</time>
      </trkpt>
      <trkpt lat="45.83568" lon="4.81302">
        <ele>358.4</ele>
        <time>2015-06-20T07:43:50.000Z</time>
      </trkpt>
      <trkpt lat="45.83567" lon="4.81301">
        <ele>358.6</ele>
        <time>2015-06-20T07:43:51.000Z</time>
      </trkpt>
      <trkpt lat="45.83564" lon="4.81298">
        <ele>359</ele>
        <time>2015-06-20T07:43:53.000Z</time>
      </trkpt>
      <trkpt lat="45.83563" lon="4.81284">
        <ele>360.3</ele>
        <time>2015-06-20T07:44:00.000Z</time>
      </trkpt>
      <trkpt lat="45.83561" lon="4.81272">
        <ele>360.9</ele>
        <time>2015-06-20T07:44:06.000Z</time>
      </trkpt>
      <trkpt lat="45.83559" lon="4.81266">
        <ele>361.3</ele>
        <time>2015-06-20T07:44:10.000Z</time>
      </trkpt>
      <trkpt lat="45.83558" lon="4.81261">
        <ele>361.5</ele>
        <time>2015-06-20T07:44:14.000Z</time>
      </trkpt>
      <trkpt lat="45.83557" lon="4.81251">
        <ele>361.8</ele>
        <time>2015-06-20T07:44:18.000Z</time>
      </trkpt>
      <trkpt lat="45.83555" lon="4.81233">
        <ele>363.2</ele>
        <time>2015-06-20T07:44:26.000Z</time>
      </trkpt>
      <trkpt lat="45.83546" lon="4.81214">
        <ele>365.3</ele>
        <time>2015-06-20T07:44:35.000Z</time>
      </trkpt>
      <trkpt lat="45.83541" lon="4.81209">
        <ele>366.2</ele>
        <time>2015-06-20T07:44:39.000Z</time>
      </trkpt>
      <trkpt lat="45.83533" lon="4.81207">
        <ele>367.1</ele>
        <time>2015-06-20T07:44:45.000Z</time>
      </trkpt>
      <trkpt lat="45.83529" lon="4.81206">
        <ele>367.6</ele>
        <time>2015-06-20T07:44:48.000Z</time>
      </trkpt>
      <trkpt lat="45.83517" lon="4.81205">
        <ele>368.1</ele>
        <time>2015-06-20T07:44:56.000Z</time>
      </trkpt>
      <trkpt lat="45.83506" lon="4.81203">
        <ele>368.7</ele>
        <time>2015-06-20T07:45:03.000Z</time>
      </trkpt>
      <trkpt lat="45.83497" lon="4.81203">
        <ele>369</ele>
        <time>2015-06-20T07:45:09.000Z</time>
      </trkpt>
      <trkpt lat="45.83493" lon="4.81202">
        <ele>369.8</ele>
        <time>2015-06-20T07:45:12.000Z</time>
      </trkpt>
      <trkpt lat="45.83486" lon="4.81202">
        <ele>370.4</ele>
        <time>2015-06-20T07:45:16.000Z</time>
      </trkpt>
      <trkpt lat="45.8348" lon="4.81206">
        <ele>370.3</ele>
        <time>2015-06-20T07:45:20.000Z</time>
      </trkpt>
      <trkpt lat="45.8347" lon="4.81207">
        <ele>371.1</ele>
        <time>2015-06-20T07:45:26.000Z</time>
      </trkpt>
      <trkpt lat="45.83453" lon="4.8121">
        <ele>371.8</ele>
        <time>2015-06-20T07:45:36.000Z</time>
      </trkpt>
      <trkpt lat="45.8344" lon="4.81212">
        <ele>372.5</ele>
        <time>2015-06-20T07:45:43.000Z</time>
      </trkpt>
      <trkpt lat="45.83428" lon="4.8121">
        <ele>373.5</ele>
        <time>2015-06-20T07:45:50.000Z</time>
      </trkpt>
      <trkpt lat="45.83423" lon="4.81208">
        <ele>374.2</ele>
        <time>2015-06-20T07:45:54.000Z</time>
      </trkpt>
      <trkpt lat="45.83415" lon="4.81201">
        <ele>375.7</ele>
        <time>2015-06-20T07:46:00.000Z</time>
      </trkpt>
      <trkpt lat="45.83409" lon="4.81199">
        <ele>375.9</ele>
        <time>2015-06-20T07:46:04.000Z</time>
      </trkpt>
      <trkpt lat="45.83407" lon="4.81198">
        <ele>376.1</ele>
        <time>2015-06-20T07:46:05.000Z</time>
      </trkpt>
      <trkpt lat="45.83406" lon="4.81196">
        <ele>376.3</ele>
        <time>2015-06-20T07:46:06.000Z</time>
      </trkpt>
      <trkpt lat="45.83401" lon="4.81191">
        <ele>376.8</ele>
        <time>2015-06-20T07:46:10.000Z</time>
      </trkpt>
      <trkpt lat="45.83391" lon="4.81181">
        <ele>377.6</ele>
        <time>2015-06-20T07:46:17.000Z</time>
      </trkpt>
      <trkpt lat="45.83385" lon="4.81174">
        <ele>378</ele>
        <time>2015-06-20T07:46:22.000Z</time>
      </trkpt>
      <trkpt lat="45.83381" lon="4.81171">
        <ele>378.2</ele>
        <time>2015-06-20T07:46:24.000Z</time>
      </trkpt>
      <trkpt lat="45.83371" lon="4.8116">
        <ele>378.9</ele>
        <time>2015-06-20T07:46:31.000Z</time>
      </trkpt>
      <trkpt lat="45.83369" lon="4.81159">
        <ele>378.9</ele>
        <time>2015-06-20T07:46:32.000Z</time>
      </trkpt>
      <trkpt lat="45.83363" lon="4.81156">
        <ele>378.9</ele>
        <time>2015-06-20T07:46:37.000Z</time>
      </trkpt>
      <trkpt lat="45.83363" lon="4.81155">
        <ele>378.9</ele>
        <time>2015-06-20T07:46:48.000Z</time>
      </trkpt>
      <trkpt lat="45.8336" lon="4.81156">
        <ele>378.7</ele>
        <time>2015-06-20T07:48:01.000Z</time>
      </trkpt>
      <trkpt lat="45.83356" lon="4.81155">
        <ele>378.3</ele>
        <time>2015-06-20T07:48:08.000Z</time>
      </trkpt>
      <trkpt lat="45.83346" lon="4.81152">
        <ele>377.7</ele>
        <time>2015-06-20T07:48:14.000Z</time>
      </trkpt>
      <trkpt lat="45.83335" lon="4.81147">
        <ele>377.3</ele>
        <time>2015-06-20T07:48:20.000Z</time>
      </trkpt>
      <trkpt lat="45.83324" lon="4.81144">
        <ele>376.1</ele>
        <time>2015-06-20T07:48:26.000Z</time>
      </trkpt>
      <trkpt lat="45.83314" lon="4.81145">
        <ele>374.5</ele>
        <time>2015-06-20T07:48:31.000Z</time>
      </trkpt>
      <trkpt lat="45.83301" lon="4.81146">
        <ele>372.8</ele>
        <time>2015-06-20T07:48:37.000Z</time>
      </trkpt>
      <trkpt lat="45.83288" lon="4.81147">
        <ele>371.5</ele>
        <time>2015-06-20T07:48:44.000Z</time>
      </trkpt>
      <trkpt lat="45.83273" lon="4.81149">
        <ele>369.6</ele>
        <time>2015-06-20T07:48:51.000Z</time>
      </trkpt>
      <trkpt lat="45.8326" lon="4.81149">
        <ele>368</ele>
        <time>2015-06-20T07:48:57.000Z</time>
      </trkpt>
      <trkpt lat="45.83256" lon="4.81146">
        <ele>367.6</ele>
        <time>2015-06-20T07:48:59.000Z</time>
      </trkpt>
      <trkpt lat="45.83251" lon="4.81136">
        <ele>367.1</ele>
        <time>2015-06-20T07:49:03.000Z</time>
      </trkpt>
      <trkpt lat="45.8325" lon="4.81126">
        <ele>367</ele>
        <time>2015-06-20T07:49:07.000Z</time>
      </trkpt>
      <trkpt lat="45.83248" lon="4.81113">
        <ele>366.8</ele>
        <time>2015-06-20T07:49:11.000Z</time>
      </trkpt>
      <trkpt lat="45.83247" lon="4.81105">
        <ele>366.9</ele>
        <time>2015-06-20T07:49:15.000Z</time>
      </trkpt>
      <trkpt lat="45.83248" lon="4.81102">
        <ele>367.1</ele>
        <time>2015-06-20T07:49:16.000Z</time>
      </trkpt>
      <trkpt lat="45.83248" lon="4.81101">
        <ele>367.2</ele>
        <time>2015-06-20T07:49:17.000Z</time>
      </trkpt>
      <trkpt lat="45.83247" lon="4.81098">
        <ele>367.2</ele>
        <time>2015-06-20T07:49:20.000Z</time>
      </trkpt>
      <trkpt lat="45.83237" lon="4.81094">
        <ele>366.9</ele>
        <time>2015-06-20T07:49:26.000Z</time>
      </trkpt>
      <trkpt lat="45.83228" lon="4.81093">
        <ele>366.5</ele>
        <time>2015-06-20T07:49:31.000Z</time>
      </trkpt>
      <trkpt lat="45.83218" lon="4.81091">
        <ele>366.7</ele>
        <time>2015-06-20T07:49:36.000Z</time>
      </trkpt>
      <trkpt lat="45.83209" lon="4.81089">
        <ele>367.4</ele>
        <time>2015-06-20T07:49:41.000Z</time>
      </trkpt>
      <trkpt lat="45.83202" lon="4.81085">
        <ele>368.4</ele>
        <time>2015-06-20T07:49:45.000Z</time>
      </trkpt>
      <trkpt lat="45.83193" lon="4.81084">
        <ele>368.9</ele>
        <time>2015-06-20T07:49:50.000Z</time>
      </trkpt>
      <trkpt lat="45.83188" lon="4.81082">
        <ele>369.7</ele>
        <time>2015-06-20T07:49:54.000Z</time>
      </trkpt>
      <trkpt lat="45.83184" lon="4.8108">
        <ele>370.2</ele>
        <time>2015-06-20T07:49:56.000Z</time>
      </trkpt>
      <trkpt lat="45.83178" lon="4.81076">
        <ele>371.7</ele>
        <time>2015-06-20T07:50:00.000Z</time>
      </trkpt>
      <trkpt lat="45.8317" lon="4.81071">
        <ele>373.3</ele>
        <time>2015-06-20T07:50:04.000Z</time>
      </trkpt>
      <trkpt lat="45.83166" lon="4.81064">
        <ele>375.4</ele>
        <time>2015-06-20T07:50:08.000Z</time>
      </trkpt>
      <trkpt lat="45.83164" lon="4.81059">
        <ele>376.3</ele>
        <time>2015-06-20T07:50:11.000Z</time>
      </trkpt>
      <trkpt lat="45.83161" lon="4.81054">
        <ele>377.2</ele>
        <time>2015-06-20T07:50:14.000Z</time>
      </trkpt>
      <trkpt lat="45.83158" lon="4.81048">
        <ele>378.4</ele>
        <time>2015-06-20T07:50:19.000Z</time>
      </trkpt>
      <trkpt lat="45.83154" lon="4.81036">
        <ele>380.6</ele>
        <time>2015-06-20T07:50:25.000Z</time>
      </trkpt>
      <trkpt lat="45.83151" lon="4.8103">
        <ele>381.8</ele>
        <time>2015-06-20T07:50:28.000Z</time>
      </trkpt>
      <trkpt lat="45.8315" lon="4.81025">
        <ele>382.3</ele>
        <time>2015-06-20T07:50:30.000Z</time>
      </trkpt>
      <trkpt lat="45.8315" lon="4.81017">
        <ele>383.3</ele>
        <time>2015-06-20T07:50:33.000Z</time>
      </trkpt>
      <trkpt lat="45.8315" lon="4.81016">
        <ele>383.5</ele>
        <time>2015-06-20T07:50:34.000Z</time>
      </trkpt>
      <trkpt lat="45.8315" lon="4.81013">
        <ele>383.8</ele>
        <time>2015-06-20T07:50:35.000Z</time>
      </trkpt>
      <trkpt lat="45.8315" lon="4.81008">
        <ele>384.6</ele>
        <time>2015-06-20T07:50:37.000Z</time>
      </trkpt>
      <trkpt lat="45.83151" lon="4.80999">
        <ele>386</ele>
        <time>2015-06-20T07:50:41.000Z</time>
      </trkpt>
      <trkpt lat="45.8315" lon="4.80995">
        <ele>386.1</ele>
        <time>2015-06-20T07:50:44.000Z</time>
      </trkpt>
      <trkpt lat="45.83145" lon="4.80993">
        <ele>384.6</ele>
        <time>2015-06-20T07:50:48.000Z</time>
      </trkpt>
      <trkpt lat="45.83138" lon="4.80994">
        <ele>382.7</ele>
        <time>2015-06-20T07:50:53.000Z</time>
      </trkpt>
      <trkpt lat="45.83131" lon="4.80996">
        <ele>382.9</ele>
        <time>2015-06-20T07:50:59.000Z</time>
      </trkpt>
      <trkpt lat="45.8313" lon="4.80996">
        <ele>382.9</ele>
        <time>2015-06-20T07:51:00.000Z</time>
      </trkpt>
      <trkpt lat="45.83129" lon="4.80996">
        <ele>383</ele>
        <time>2015-06-20T07:51:02.000Z</time>
      </trkpt>
      <trkpt lat="45.83123" lon="4.80997">
        <ele>383.2</ele>
        <time>2015-06-20T07:51:06.000Z</time>
      </trkpt>
      <trkpt lat="45.83114" lon="4.81004">
        <ele>382</ele>
        <time>2015-06-20T07:51:14.000Z</time>
      </trkpt>
      <trkpt lat="45.83108" lon="4.8101">
        <ele>381.9</ele>
        <time>2015-06-20T07:51:19.000Z</time>
      </trkpt>
      <trkpt lat="45.83102" lon="4.81018">
        <ele>382.5</ele>
        <time>2015-06-20T07:51:26.000Z</time>
      </trkpt>
      <trkpt lat="45.83098" lon="4.81022">
        <ele>382.6</ele>
        <time>2015-06-20T07:51:29.000Z</time>
      </trkpt>
      <trkpt lat="45.83094" lon="4.81029">
        <ele>382</ele>
        <time>2015-06-20T07:51:33.000Z</time>
      </trkpt>
      <trkpt lat="45.83088" lon="4.81038">
        <ele>381.7</ele>
        <time>2015-06-20T07:51:39.000Z</time>
      </trkpt>
      <trkpt lat="45.83087" lon="4.8104">
        <ele>381.7</ele>
        <time>2015-06-20T07:51:40.000Z</time>
      </trkpt>
      <trkpt lat="45.83086" lon="4.81042">
        <ele>381.4</ele>
        <time>2015-06-20T07:51:41.000Z</time>
      </trkpt>
      <trkpt lat="45.83081" lon="4.81046">
        <ele>382.5</ele>
        <time>2015-06-20T07:51:45.000Z</time>
      </trkpt>
      <trkpt lat="45.8308" lon="4.81046">
        <ele>383.1</ele>
        <time>2015-06-20T07:51:46.000Z</time>
      </trkpt>
      <trkpt lat="45.83078" lon="4.81047">
        <ele>383.6</ele>
        <time>2015-06-20T07:51:47.000Z</time>
      </trkpt>
      <trkpt lat="45.83069" lon="4.8105">
        <ele>386.7</ele>
        <time>2015-06-20T07:51:53.000Z</time>
      </trkpt>
      <trkpt lat="45.83057" lon="4.81052">
        <ele>391.7</ele>
        <time>2015-06-20T07:52:01.000Z</time>
      </trkpt>
      <trkpt lat="45.83055" lon="4.81053">
        <ele>392.2</ele>
        <time>2015-06-20T07:52:02.000Z</time>
      </trkpt>
      <trkpt lat="45.8305" lon="4.81056">
        <ele>392.3</ele>
        <time>2015-06-20T07:52:05.000Z</time>
      </trkpt>
      <trkpt lat="45.83046" lon="4.81057">
        <ele>392.4</ele>
        <time>2015-06-20T07:52:08.000Z</time>
      </trkpt>
      <trkpt lat="45.83031" lon="4.81062">
        <ele>394.1</ele>
        <time>2015-06-20T07:52:16.000Z</time>
      </trkpt>
      <trkpt lat="45.8303" lon="4.81062">
        <ele>394.3</ele>
        <time>2015-06-20T07:52:17.000Z</time>
      </trkpt>
      <trkpt lat="45.83023" lon="4.81064">
        <ele>395</ele>
        <time>2015-06-20T07:52:21.000Z</time>
      </trkpt>
      <trkpt lat="45.83013" lon="4.81069">
        <ele>395.7</ele>
        <time>2015-06-20T07:52:27.000Z</time>
      </trkpt>
      <trkpt lat="45.83008" lon="4.8107">
        <ele>396.5</ele>
        <time>2015-06-20T07:52:31.000Z</time>
      </trkpt>
      <trkpt lat="45.83006" lon="4.81071">
        <ele>396.4</ele>
        <time>2015-06-20T07:52:32.000Z</time>
      </trkpt>
      <trkpt lat="45.82997" lon="4.81075">
        <ele>397.4</ele>
        <time>2015-06-20T07:52:37.000Z</time>
      </trkpt>
      <trkpt lat="45.82988" lon="4.8108">
        <ele>398.6</ele>
        <time>2015-06-20T07:52:43.000Z</time>
      </trkpt>
      <trkpt lat="45.82977" lon="4.81085">
        <ele>400</ele>
        <time>2015-06-20T07:52:50.000Z</time>
      </trkpt>
      <trkpt lat="45.82969" lon="4.81091">
        <ele>400.2</ele>
        <time>2015-06-20T07:52:56.000Z</time>
      </trkpt>
      <trkpt lat="45.82968" lon="4.81092">
        <ele>400.2</ele>
        <time>2015-06-20T07:52:57.000Z</time>
      </trkpt>
      <trkpt lat="45.82959" lon="4.81096">
        <ele>401.5</ele>
        <time>2015-06-20T07:53:02.000Z</time>
      </trkpt>
      <trkpt lat="45.82957" lon="4.81097">
        <ele>401.7</ele>
        <time>2015-06-20T07:53:03.000Z</time>
      </trkpt>
      <trkpt lat="45.82948" lon="4.811">
        <ele>403.6</ele>
        <time>2015-06-20T07:53:08.000Z</time>
      </trkpt>
      <trkpt lat="45.82945" lon="4.811">
        <ele>404.4</ele>
        <time>2015-06-20T07:53:10.000Z</time>
      </trkpt>
      <trkpt lat="45.82939" lon="4.81102">
        <ele>405</ele>
        <time>2015-06-20T07:53:14.000Z</time>
      </trkpt>
      <trkpt lat="45.82928" lon="4.81105">
        <ele>406</ele>
        <time>2015-06-20T07:53:20.000Z</time>
      </trkpt>
      <trkpt lat="45.82918" lon="4.81106">
        <ele>407.2</ele>
        <time>2015-06-20T07:53:25.000Z</time>
      </trkpt>
      <trkpt lat="45.82907" lon="4.81108">
        <ele>407.9</ele>
        <time>2015-06-20T07:53:30.000Z</time>
      </trkpt>
      <trkpt lat="45.82893" lon="4.81111">
        <ele>408.7</ele>
        <time>2015-06-20T07:53:36.000Z</time>
      </trkpt>
      <trkpt lat="45.82885" lon="4.81115">
        <ele>408.9</ele>
        <time>2015-06-20T07:53:40.000Z</time>
      </trkpt>
      <trkpt lat="45.82878" lon="4.8111">
        <ele>409</ele>
        <time>2015-06-20T07:53:46.000Z</time>
      </trkpt>
      <trkpt lat="45.82877" lon="4.81109">
        <ele>409</ele>
        <time>2015-06-20T07:53:47.000Z</time>
      </trkpt>
      <trkpt lat="45.82874" lon="4.81109">
        <ele>409</ele>
        <time>2015-06-20T07:53:56.000Z</time>
      </trkpt>
      <trkpt lat="45.82872" lon="4.81107">
        <ele>409.1</ele>
        <time>2015-06-20T07:54:00.000Z</time>
      </trkpt>
      <trkpt lat="45.8287" lon="4.81109">
        <ele>409</ele>
        <time>2015-06-20T07:54:30.000Z</time>
      </trkpt>
      <trkpt lat="45.82863" lon="4.81116">
        <ele>409</ele>
        <time>2015-06-20T07:54:36.000Z</time>
      </trkpt>
      <trkpt lat="45.82849" lon="4.8113">
        <ele>408.9</ele>
        <time>2015-06-20T07:54:44.000Z</time>
      </trkpt>
      <trkpt lat="45.82838" lon="4.81143">
        <ele>409</ele>
        <time>2015-06-20T07:54:52.000Z</time>
      </trkpt>
      <trkpt lat="45.82829" lon="4.81158">
        <ele>408.9</ele>
        <time>2015-06-20T07:54:58.000Z</time>
      </trkpt>
      <trkpt lat="45.82822" lon="4.81175">
        <ele>409.3</ele>
        <time>2015-06-20T07:55:04.000Z</time>
      </trkpt>
      <trkpt lat="45.82818" lon="4.81186">
        <ele>409.7</ele>
        <time>2015-06-20T07:55:09.000Z</time>
      </trkpt>
      <trkpt lat="45.82814" lon="4.81201">
        <ele>410.2</ele>
        <time>2015-06-20T07:55:15.000Z</time>
      </trkpt>
      <trkpt lat="45.82809" lon="4.81221">
        <ele>410.8</ele>
        <time>2015-06-20T07:55:22.000Z</time>
      </trkpt>
      <trkpt lat="45.82805" lon="4.81243">
        <ele>411.8</ele>
        <time>2015-06-20T07:55:30.000Z</time>
      </trkpt>
      <trkpt lat="45.82801" lon="4.81262">
        <ele>412.6</ele>
        <time>2015-06-20T07:55:37.000Z</time>
      </trkpt>
      <trkpt lat="45.82799" lon="4.81283">
        <ele>413.4</ele>
        <time>2015-06-20T07:55:44.000Z</time>
      </trkpt>
      <trkpt lat="45.82796" lon="4.81299">
        <ele>414.1</ele>
        <time>2015-06-20T07:55:50.000Z</time>
      </trkpt>
      <trkpt lat="45.82794" lon="4.81318">
        <ele>414.8</ele>
        <time>2015-06-20T07:55:57.000Z</time>
      </trkpt>
      <trkpt lat="45.82791" lon="4.81338">
        <ele>415.8</ele>
        <time>2015-06-20T07:56:05.000Z</time>
      </trkpt>
      <trkpt lat="45.82788" lon="4.81349">
        <ele>416.6</ele>
        <time>2015-06-20T07:56:10.000Z</time>
      </trkpt>
      <trkpt lat="45.82786" lon="4.81365">
        <ele>417.7</ele>
        <time>2015-06-20T07:56:17.000Z</time>
      </trkpt>
      <trkpt lat="45.82782" lon="4.81375">
        <ele>418.6</ele>
        <time>2015-06-20T07:56:22.000Z</time>
      </trkpt>
      <trkpt lat="45.82777" lon="4.81392">
        <ele>420.1</ele>
        <time>2015-06-20T07:56:31.000Z</time>
      </trkpt>
      <trkpt lat="45.82776" lon="4.81397">
        <ele>420.3</ele>
        <time>2015-06-20T07:56:33.000Z</time>
      </trkpt>
      <trkpt lat="45.82776" lon="4.81405">
        <ele>420.6</ele>
        <time>2015-06-20T07:56:38.000Z</time>
      </trkpt>
      <trkpt lat="45.82775" lon="4.81411">
        <ele>420.9</ele>
        <time>2015-06-20T07:56:41.000Z</time>
      </trkpt>
      <trkpt lat="45.82775" lon="4.81419">
        <ele>421.1</ele>
        <time>2015-06-20T07:56:46.000Z</time>
      </trkpt>
      <trkpt lat="45.82775" lon="4.81424">
        <ele>420.9</ele>
        <time>2015-06-20T07:56:49.000Z</time>
      </trkpt>
      <trkpt lat="45.82774" lon="4.81428">
        <ele>421</ele>
        <time>2015-06-20T07:56:51.000Z</time>
      </trkpt>
      <trkpt lat="45.82772" lon="4.8144">
        <ele>421</ele>
        <time>2015-06-20T07:56:58.000Z</time>
      </trkpt>
      <trkpt lat="45.82769" lon="4.81447">
        <ele>421.3</ele>
        <time>2015-06-20T07:57:02.000Z</time>
      </trkpt>
      <trkpt lat="45.82766" lon="4.81455">
        <ele>421.4</ele>
        <time>2015-06-20T07:57:07.000Z</time>
      </trkpt>
      <trkpt lat="45.82763" lon="4.81466">
        <ele>421.7</ele>
        <time>2015-06-20T07:57:12.000Z</time>
      </trkpt>
      <trkpt lat="45.82762" lon="4.81473">
        <ele>421.6</ele>
        <time>2015-06-20T07:57:15.000Z</time>
      </trkpt>
      <trkpt lat="45.82762" lon="4.81476">
        <ele>421.7</ele>
        <time>2015-06-20T07:57:16.000Z</time>
      </trkpt>
      <trkpt lat="45.82762" lon="4.81479">
        <ele>421.8</ele>
        <time>2015-06-20T07:57:17.000Z</time>
      </trkpt>
      <trkpt lat="45.82761" lon="4.8149">
        <ele>421.7</ele>
        <time>2015-06-20T07:57:22.000Z</time>
      </trkpt>
      <trkpt lat="45.82761" lon="4.81499">
        <ele>421.7</ele>
        <time>2015-06-20T07:57:26.000Z</time>
      </trkpt>
      <trkpt lat="45.82761" lon="4.815">
        <ele>421.6</ele>
        <time>2015-06-20T07:57:27.000Z</time>
      </trkpt>
      <trkpt lat="45.8276" lon="4.81506">
        <ele>422.6</ele>
        <time>2015-06-20T07:57:35.000Z</time>
      </trkpt>
      <trkpt lat="45.82752" lon="4.81521">
        <ele>429.1</ele>
        <time>2015-06-20T07:58:22.000Z</time>
      </trkpt>
      <trkpt lat="45.82747" lon="4.81524">
        <ele>430.8</ele>
        <time>2015-06-20T07:58:27.000Z</time>
      </trkpt>
      <trkpt lat="45.82746" lon="4.81525">
        <ele>431</ele>
        <time>2015-06-20T07:58:28.000Z</time>
      </trkpt>
      <trkpt lat="45.82734" lon="4.81531">
        <ele>432.4</ele>
        <time>2015-06-20T07:58:35.000Z</time>
      </trkpt>
      <trkpt lat="45.8273" lon="4.81533">
        <ele>432.8</ele>
        <time>2015-06-20T07:58:38.000Z</time>
      </trkpt>
      <trkpt lat="45.82725" lon="4.81542">
        <ele>433.8</ele>
        <time>2015-06-20T07:58:43.000Z</time>
      </trkpt>
      <trkpt lat="45.82725" lon="4.81543">
        <ele>433.9</ele>
        <time>2015-06-20T07:58:44.000Z</time>
      </trkpt>
      <trkpt lat="45.82725" lon="4.81545">
        <ele>434.1</ele>
        <time>2015-06-20T07:58:45.000Z</time>
      </trkpt>
      <trkpt lat="45.82723" lon="4.81554">
        <ele>434.9</ele>
        <time>2015-06-20T07:58:49.000Z</time>
      </trkpt>
      <trkpt lat="45.82721" lon="4.81565">
        <ele>435.7</ele>
        <time>2015-06-20T07:58:53.000Z</time>
      </trkpt>
      <trkpt lat="45.82721" lon="4.81567">
        <ele>435.9</ele>
        <time>2015-06-20T07:58:54.000Z</time>
      </trkpt>
      <trkpt lat="45.82717" lon="4.81583">
        <ele>437.4</ele>
        <time>2015-06-20T07:59:01.000Z</time>
      </trkpt>
      <trkpt lat="45.82716" lon="4.81586">
        <ele>437.6</ele>
        <time>2015-06-20T07:59:02.000Z</time>
      </trkpt>
      <trkpt lat="45.82712" lon="4.81599">
        <ele>438.6</ele>
        <time>2015-06-20T07:59:08.000Z</time>
      </trkpt>
      <trkpt lat="45.82712" lon="4.81601">
        <ele>438.8</ele>
        <time>2015-06-20T07:59:09.000Z</time>
      </trkpt>
      <trkpt lat="45.8271" lon="4.81611">
        <ele>439.4</ele>
        <time>2015-06-20T07:59:13.000Z</time>
      </trkpt>
      <trkpt lat="45.82709" lon="4.81624">
        <ele>439.9</ele>
        <time>2015-06-20T07:59:20.000Z</time>
      </trkpt>
      <trkpt lat="45.82708" lon="4.81627">
        <ele>440.1</ele>
        <time>2015-06-20T07:59:21.000Z</time>
      </trkpt>
      <trkpt lat="45.82705" lon="4.81642">
        <ele>441</ele>
        <time>2015-06-20T07:59:27.000Z</time>
      </trkpt>
      <trkpt lat="45.82704" lon="4.81645">
        <ele>441.1</ele>
        <time>2015-06-20T07:59:28.000Z</time>
      </trkpt>
      <trkpt lat="45.82702" lon="4.81655">
        <ele>441.7</ele>
        <time>2015-06-20T07:59:32.000Z</time>
      </trkpt>
      <trkpt lat="45.82698" lon="4.81679">
        <ele>443</ele>
        <time>2015-06-20T07:59:41.000Z</time>
      </trkpt>
      <trkpt lat="45.82696" lon="4.81693">
        <ele>443.8</ele>
        <time>2015-06-20T07:59:46.000Z</time>
      </trkpt>
      <trkpt lat="45.82694" lon="4.81707">
        <ele>444.5</ele>
        <time>2015-06-20T07:59:51.000Z</time>
      </trkpt>
      <trkpt lat="45.82694" lon="4.81717">
        <ele>444.9</ele>
        <time>2015-06-20T07:59:55.000Z</time>
      </trkpt>
      <trkpt lat="45.82692" lon="4.81735">
        <ele>445.7</ele>
        <time>2015-06-20T08:00:01.000Z</time>
      </trkpt>
      <trkpt lat="45.82691" lon="4.8174">
        <ele>445.9</ele>
        <time>2015-06-20T08:00:03.000Z</time>
      </trkpt>
      <trkpt lat="45.82687" lon="4.81761">
        <ele>446.9</ele>
        <time>2015-06-20T08:00:10.000Z</time>
      </trkpt>
      <trkpt lat="45.82685" lon="4.81774">
        <ele>447.5</ele>
        <time>2015-06-20T08:00:15.000Z</time>
      </trkpt>
      <trkpt lat="45.82682" lon="4.81791">
        <ele>448.1</ele>
        <time>2015-06-20T08:00:21.000Z</time>
      </trkpt>
      <trkpt lat="45.82677" lon="4.81811">
        <ele>449</ele>
        <time>2015-06-20T08:00:28.000Z</time>
      </trkpt>
      <trkpt lat="45.82677" lon="4.81814">
        <ele>449.1</ele>
        <time>2015-06-20T08:00:29.000Z</time>
      </trkpt>
      <trkpt lat="45.82676" lon="4.81821">
        <ele>449.3</ele>
        <time>2015-06-20T08:00:32.000Z</time>
      </trkpt>
      <trkpt lat="45.82672" lon="4.8184">
        <ele>450.2</ele>
        <time>2015-06-20T08:00:40.000Z</time>
      </trkpt>
      <trkpt lat="45.82667" lon="4.81852">
        <ele>451</ele>
        <time>2015-06-20T08:00:45.000Z</time>
      </trkpt>
      <trkpt lat="45.8266" lon="4.81868">
        <ele>451.8</ele>
        <time>2015-06-20T08:00:51.000Z</time>
      </trkpt>
      <trkpt lat="45.82659" lon="4.81871">
        <ele>452</ele>
        <time>2015-06-20T08:00:52.000Z</time>
      </trkpt>
      <trkpt lat="45.82657" lon="4.8188">
        <ele>452.3</ele>
        <time>2015-06-20T08:00:55.000Z</time>
      </trkpt>
      <trkpt lat="45.82654" lon="4.81899">
        <ele>452.6</ele>
        <time>2015-06-20T08:01:01.000Z</time>
      </trkpt>
      <trkpt lat="45.82651" lon="4.81913">
        <ele>452.9</ele>
        <time>2015-06-20T08:01:06.000Z</time>
      </trkpt>
      <trkpt lat="45.82647" lon="4.81926">
        <ele>452.8</ele>
        <time>2015-06-20T08:01:10.000Z</time>
      </trkpt>
      <trkpt lat="45.82645" lon="4.81937">
        <ele>452.5</ele>
        <time>2015-06-20T08:01:14.000Z</time>
      </trkpt>
      <trkpt lat="45.82641" lon="4.81948">
        <ele>452.2</ele>
        <time>2015-06-20T08:01:18.000Z</time>
      </trkpt>
      <trkpt lat="45.8264" lon="4.81959">
        <ele>451.7</ele>
        <time>2015-06-20T08:01:22.000Z</time>
      </trkpt>
      <trkpt lat="45.82636" lon="4.81976">
        <ele>451.3</ele>
        <time>2015-06-20T08:01:27.000Z</time>
      </trkpt>
      <trkpt lat="45.82633" lon="4.82001">
        <ele>450.2</ele>
        <time>2015-06-20T08:01:34.000Z</time>
      </trkpt>
      <trkpt lat="45.82632" lon="4.82008">
        <ele>449.9</ele>
        <time>2015-06-20T08:01:36.000Z</time>
      </trkpt>
      <trkpt lat="45.82629" lon="4.8203">
        <ele>449.6</ele>
        <time>2015-06-20T08:01:43.000Z</time>
      </trkpt>
      <trkpt lat="45.82631" lon="4.82049">
        <ele>449.1</ele>
        <time>2015-06-20T08:01:48.000Z</time>
      </trkpt>
      <trkpt lat="45.82632" lon="4.82064">
        <ele>449.3</ele>
        <time>2015-06-20T08:01:52.000Z</time>
      </trkpt>
      <trkpt lat="45.82634" lon="4.82071">
        <ele>449.4</ele>
        <time>2015-06-20T08:01:54.000Z</time>
      </trkpt>
      <trkpt lat="45.82642" lon="4.82099">
        <ele>450.2</ele>
        <time>2015-06-20T08:02:02.000Z</time>
      </trkpt>
      <trkpt lat="45.82646" lon="4.82118">
        <ele>451.4</ele>
        <time>2015-06-20T08:02:08.000Z</time>
      </trkpt>
      <trkpt lat="45.82654" lon="4.82142">
        <ele>452.4</ele>
        <time>2015-06-20T08:02:15.000Z</time>
      </trkpt>
      <trkpt lat="45.82659" lon="4.82158">
        <ele>452.6</ele>
        <time>2015-06-20T08:02:20.000Z</time>
      </trkpt>
      <trkpt lat="45.82664" lon="4.82174">
        <ele>452.6</ele>
        <time>2015-06-20T08:02:25.000Z</time>
      </trkpt>
      <trkpt lat="45.8268" lon="4.82211">
        <ele>452.7</ele>
        <time>2015-06-20T08:02:37.000Z</time>
      </trkpt>
      <trkpt lat="45.82689" lon="4.82228">
        <ele>452.7</ele>
        <time>2015-06-20T08:02:43.000Z</time>
      </trkpt>
      <trkpt lat="45.82699" lon="4.82246">
        <ele>452.3</ele>
        <time>2015-06-20T08:02:49.000Z</time>
      </trkpt>
      <trkpt lat="45.82708" lon="4.82263">
        <ele>451.5</ele>
        <time>2015-06-20T08:02:55.000Z</time>
      </trkpt>
      <trkpt lat="45.82714" lon="4.82276">
        <ele>450.9</ele>
        <time>2015-06-20T08:03:00.000Z</time>
      </trkpt>
      <trkpt lat="45.82721" lon="4.8229">
        <ele>450.1</ele>
        <time>2015-06-20T08:03:05.000Z</time>
      </trkpt>
      <trkpt lat="45.82726" lon="4.82307">
        <ele>449.6</ele>
        <time>2015-06-20T08:03:10.000Z</time>
      </trkpt>
      <trkpt lat="45.8273" lon="4.82323">
        <ele>448.4</ele>
        <time>2015-06-20T08:03:15.000Z</time>
      </trkpt>
      <trkpt lat="45.82733" lon="4.82335">
        <ele>447.5</ele>
        <time>2015-06-20T08:03:19.000Z</time>
      </trkpt>
      <trkpt lat="45.82737" lon="4.82353">
        <ele>446.4</ele>
        <time>2015-06-20T08:03:25.000Z</time>
      </trkpt>
      <trkpt lat="45.8274" lon="4.82363">
        <ele>445.8</ele>
        <time>2015-06-20T08:03:29.000Z</time>
      </trkpt>
      <trkpt lat="45.82744" lon="4.8238">
        <ele>444.7</ele>
        <time>2015-06-20T08:03:35.000Z</time>
      </trkpt>
      <trkpt lat="45.82747" lon="4.82394">
        <ele>443.5</ele>
        <time>2015-06-20T08:03:40.000Z</time>
      </trkpt>
      <trkpt lat="45.82756" lon="4.82421">
        <ele>440.5</ele>
        <time>2015-06-20T08:03:49.000Z</time>
      </trkpt>
      <trkpt lat="45.82762" lon="4.82433">
        <ele>439.2</ele>
        <time>2015-06-20T08:03:54.000Z</time>
      </trkpt>
      <trkpt lat="45.82767" lon="4.82445">
        <ele>438</ele>
        <time>2015-06-20T08:03:58.000Z</time>
      </trkpt>
      <trkpt lat="45.82772" lon="4.82459">
        <ele>436.5</ele>
        <time>2015-06-20T08:04:03.000Z</time>
      </trkpt>
      <trkpt lat="45.82778" lon="4.82472">
        <ele>435</ele>
        <time>2015-06-20T08:04:08.000Z</time>
      </trkpt>
      <trkpt lat="45.82782" lon="4.82488">
        <ele>433.3</ele>
        <time>2015-06-20T08:04:14.000Z</time>
      </trkpt>
      <trkpt lat="45.82786" lon="4.82504">
        <ele>431.4</ele>
        <time>2015-06-20T08:04:20.000Z</time>
      </trkpt>
      <trkpt lat="45.82789" lon="4.82523">
        <ele>429</ele>
        <time>2015-06-20T08:04:26.000Z</time>
      </trkpt>
      <trkpt lat="45.8279" lon="4.82537">
        <ele>427.6</ele>
        <time>2015-06-20T08:04:30.000Z</time>
      </trkpt>
      <trkpt lat="45.82781" lon="4.82552">
        <ele>425.6</ele>
        <time>2015-06-20T08:04:36.000Z</time>
      </trkpt>
    </trkseg>
  </trk>
</gpx>